Home > Products > Valid Products > MTR

000
SAUS46 KLOX 240415
MTRMWS
METAR KMWS 240400Z 12011G14KT 18/M05 RMK SNOW DEPTH  M





000
SAUS46 KLOX 240356
MTR9L2
METAR K9L2 240355Z AUTO 26010KT 10SM CLR 26/M04 A2995 RMK AO2 SLP127
T02611039 $





000
SAUS46 KLOX 240354
MTRLAX
METAR KLAX 240353Z 24007KT 10SM CLR 19/17 A2991 RMK AO2 SLP125
T01890172 $





000
SAUS46 KLOX 240354
MTRMWS
METAR KMWS 240345Z 12509G11KT 18/M07 RMK SNOW DEPTH  M





000
SAUS46 KLOX 240352
MTRSMX
METAR KSMX 240351Z AUTO 29003KT 6SM HZ OVC006 18/15 A2996 RMK AO2
SLP147 T01780150





000
SAUS46 KLOX 240349
MTRSDB
METAR KSDB 240348Z AUTO 19008KT 10SM CLR 22/M02 A3013 RMK AO2 SLP145
T02171017





000
SAUS46 KLOX 240348
MTRCQT
METAR KCQT 240347Z AUTO 00000KT 10SM CLR 20/17 A2990 RMK AO2 SLP121
T02000167





000
SAUS46 KLOX 240336
MTRMWS
METAR KMWS 240330Z 23500G00KT MM/M07 RMK SNOW DEPTH  M





000
SAUS46 KLOX 240315
MTRMWS
METAR KMWS 240300Z 12511G14KT 18/M07 RMK SNOW DEPTH  M





000
SAUS46 KLOX 240306
MTRSMX
SPECI KSMX 240305Z AUTO 32004KT 6SM HZ BKN006 17/14 A2996 RMK AO2
T01720144





000
SAUS46 KLOX 240256
MTR9L2
METAR K9L2 240255Z AUTO 25012KT 10SM CLR 28/M13 A2994 RMK AO2 SLP124
T02781133 53007 $





000
SAUS46 KLOX 240254
MTRMWS
METAR KMWS 240245Z 12510G14KT 18/M06 RMK SNOW DEPTH  M





000
SAUS46 KLOX 240254
MTRLAX
METAR KLAX 240253Z 25009KT 10SM FEW014 19/17 A2989 RMK AO2 SLP121
T01940172 57002 $





000
SAUS46 KLOX 240253
MTRSMX
METAR KSMX 240251Z AUTO 28007KT 7SM FEW007 17/14 A2995 RMK AO2
SLP144 T01720144 53003





000
SAUS46 KLOX 240249
MTRSDB
METAR KSDB 240248Z AUTO 19008KT 10SM CLR 22/02 A3012 RMK AO2 SLP146
T02170017 53004





000
SAUS46 KLOX 240248
MTRCQT
METAR KCQT 240247Z AUTO 28003KT 10SM CLR 21/17 A2988 RMK AO2 SLP116
T02110167 53001





000
SAUS46 KLOX 240236
MTRMWS
METAR KMWS 240230Z 23500G00KT MM/M06 RMK SNOW DEPTH  M





000
SAUS46 KLOX 240215
MTRMWS
METAR KMWS 240200Z 14505G08KT 20/M05 RMK SNOW DEPTH  M





000
SAUS46 KLOX 240159
MTR9L2
METAR K9L2 240155Z AUTO 25012KT 10SM CLR 30/M11 A2993 RMK AO2 SLP121
T03001106 $





000
SAUS46 KLOX 240155
MTRLAX
METAR KLAX 240153Z 27011KT 10SM SCT014 20/17 A2989 RMK AO2 SLP121
T02000172 $





000
SAUS46 KLOX 240154
MTRMWS
METAR KMWS 240145Z 16004G08KT 21/M06 RMK SNOW DEPTH  M





000
SAUS46 KLOX 240152
MTRSMX
METAR KSMX 240151Z 30007KT 8SM FEW010 18/14 A2994 RMK AO2 SLP141
T01830144





000
SAUS46 KLOX 240149
MTRCQT
METAR KCQT 240147Z AUTO 25004KT 10SM CLR 22/17 A2988 RMK AO2 SLP116
T02220167





000
SAUS46 KLOX 240149
MTRSDB
METAR KSDB 240148Z AUTO 18012KT 10SM CLR 24/00 A3011 RMK AO2 SLP141
T02390000





000
SAUS46 KLOX 240136
MTRMWS
METAR KMWS 240130Z 23500G00KT MM/M07 RMK SNOW DEPTH  M





000
SAUS46 KLOX 240115
MTRMWS
METAR KMWS 240100Z 16002G05KT 24/M09 RMK SNOW DEPTH  M





000
SAUS46 KLOX 240059
MTR9L2
METAR K9L2 240055Z AUTO 24010KT 10SM CLR 33/M03 A2992 RMK AO2 SLP116
T03331028 $





000
SAUS46 KLOX 240054
MTRMWS
METAR KMWS 240045Z 21004G07KT 23/M12 RMK SNOW DEPTH  M





000
SAUS46 KLOX 240054
MTRLAX
METAR KLAX 240053Z 26012KT 10SM FEW014 21/17 A2990 RMK AO2 SLP123
T02110172 $





000
SAUS46 KLOX 240053
MTRSMX
METAR KSMX 240051Z 32008KT 9SM FEW010 21/15 A2995 RMK AO2 SLP142
T02060150





000
SAUS46 KLOX 240049
MTRSDB
METAR KSDB 240048Z AUTO 17010KT 10SM CLR 27/01 A3011 RMK AO2 SLP137
T02670011





000
SAUS46 KLOX 240048
MTRCQT
METAR KCQT 240047Z AUTO 00000KT 10SM CLR 25/16 A2988 RMK AO2 SLP116
T02500161





000
SAUS46 KLOX 240036
MTRMWS
METAR KMWS 240030Z 23500G00KT MM/M11 RMK SNOW DEPTH  M





000
SAUS46 KLOX 240015
MTRMWS
METAR KMWS 240000Z 24503G06KT 26/03 RMK SNOW DEPTH  M





000
SAUS46 KLOX 232356
MTR9L2
METAR K9L2 232355Z AUTO 23006KT 10SM CLR 34/M07 A2992 RMK AO2 SLP114
T03391067 10344 20250 56020 $





000
SAUS46 KLOX 232355
MTRLAX
METAR KLAX 232353Z 26013KT 10SM FEW014 22/17 A2990 RMK AO2 SLP123
T02170172 10233 20217 56015 $





000
SAUS46 KLOX 232354
MTRMWS
METAR KMWS 232345Z 21504G07KT 26/06 RMK SNOW DEPTH  M





000
SAUS46 KLOX 232352
MTRSMX
METAR KSMX 232351Z 30010KT 9SM FEW010 22/16 A2995 RMK AO2 SLP141
T02170156 10250 20211 56012





000
SAUS46 KLOX 232349
MTRCQT
METAR KCQT 232347Z AUTO 23003KT 10SM CLR 26/14 A2988 RMK AO2 SLP115
T02560144 10289 20256 56014





000
SAUS46 KLOX 232349
MTRSDB
METAR KSDB 232348Z AUTO 18014G19KT 10SM CLR 29/M03 A3011 RMK AO2
SLP133 T02891028 10311 20283 56014





000
SAUS46 KLOX 232336
MTRMWS
METAR KMWS 232330Z 23500G00KT MM/06 RMK SNOW DEPTH  M





000
SAUS46 KLOX 232315
MTRMWS
METAR KMWS 232300Z 22005G07KT 28/07 RMK SNOW DEPTH  M





000
SAUS46 KLOX 232259
MTR9L2
METAR K9L2 232255Z AUTO 15007KT 140V200 10SM CLR 34/M06 A2993 RMK
AO2 SLP119 T03391061 $





000
SAUS46 KLOX 232254
MTRMWS
METAR KMWS 232245Z 22505G08KT 28/04 RMK SNOW DEPTH  M





000
SAUS46 KLOX 232254
MTRLAX
METAR KLAX 232253Z 26011KT 10SM FEW015 22/17 A2991 RMK AO2 SLP126
T02220172 $





000
SAUS46 KLOX 232252
MTRSMX
METAR KSMX 232251Z 32015KT 10SM FEW010 23/15 A2996 RMK AO2 SLP144
T02280150





000
SAUS46 KLOX 232249
MTRSDB
METAR KSDB 232248Z AUTO 19015G22KT 10SM CLR 29/M03 A3011 RMK AO2
SLP136 T02941033





000
SAUS46 KLOX 232249
MTRCQT
METAR KCQT 232247Z AUTO 24003KT 10SM CLR 27/14 A2989 RMK AO2 SLP118
T02670139





000
SAUS46 KLOX 232236
MTRMWS
METAR KMWS 232230Z 23500G00KT MM/03 RMK SNOW DEPTH  M





000
SAUS46 KLOX 232215
MTRMWS
METAR KMWS 232200Z 23005G09KT 30/05 RMK SNOW DEPTH  M





000
SAUS46 KLOX 232159
MTR9L2
METAR K9L2 232155Z AUTO 17004KT 10SM CLR 33/M06 A2995 RMK AO2 SLP125
T03331056 $





000
SAUS46 KLOX 232154
MTRMWS
METAR KMWS 232145Z 21004G06KT 28/04 RMK SNOW DEPTH  M





000
SAUS46 KLOX 232154
MTRLAX
METAR KLAX 232153Z 26011KT 10SM FEW015 23/17 A2992 RMK AO2 SLP131
T02280167 $





000
SAUS46 KLOX 232152
MTRSMX
METAR KSMX 232151Z 31014KT 9SM FEW010 23/15 A2996 RMK AO2 SLP146
T02330150





000
SAUS46 KLOX 232149
MTRSDB
METAR KSDB 232148Z AUTO 18011G21KT 10SM CLR 30/M02 A3013 RMK AO2
SLP141 T03001022





000
SAUS46 KLOX 232148
MTRCQT
METAR KCQT 232147Z AUTO VRB03KT 10SM CLR 28/15 A2990 RMK AO2 SLP123
T02780150





000
SAUS46 KLOX 232136
MTRMWS
METAR KMWS 232130Z 23500G00KT MM/03 RMK SNOW DEPTH  M





000
SAUS46 KLOX 232115
MTRMWS
METAR KMWS 232100Z 24006G10KT 27/01 RMK SNOW DEPTH  M





000
SAUS46 KLOX 232059
MTR9L2
METAR K9L2 232055Z AUTO 17004KT 10SM CLR 32/M02 A2998 RMK AO2 SLP135
T03221017 58021 $





000
SAUS46 KLOX 232054
MTRMWS
METAR KMWS 232045Z 23005G09KT 28/02 RMK SNOW DEPTH  M





000
SAUS46 KLOX 232054
MTRLAX
METAR KLAX 232053Z 27011KT 10SM FEW012 23/17 A2994 RMK AO2 SLP137
T02280172 58016 $





000
SAUS46 KLOX 232053
MTRSMX
METAR KSMX 232051Z 31010KT 8SM CLR 24/16 A2998 RMK AO2 SLP152
T02390156 56010





000
SAUS46 KLOX 232049
MTRSDB
METAR KSDB 232048Z AUTO 16012G21KT 10SM CLR 30/M06 A3015 RMK AO2
SLP148 T03001056 58010





000
SAUS46 KLOX 232048
MTRCQT
METAR KCQT 232047Z AUTO VRB03KT 10SM CLR 28/17 A2992 RMK AO2 SLP129
T02780167 56017





000
SAUS46 KLOX 232036
MTRMWS
METAR KMWS 232030Z 23500G00KT MM/02 RMK SNOW DEPTH  M





000
SAUS46 KLOX 232015
MTRMWS
METAR KMWS 232000Z 20004G10KT 27/M07 RMK SNOW DEPTH  M





000
SAUS46 KLOX 232000
MTR9L2
METAR K9L2 231955Z AUTO 00000KT 10SM CLR 30/M01 A3001 RMK AO2 SLP146
T03001006 $





000
SAUS46 KLOX 231954
MTRLAX
METAR KLAX 231953Z 27010KT 10SM FEW012 23/17 A2996 RMK AO2 SLP145
T02280167 $





000
SAUS46 KLOX 231954
MTRMWS
METAR KMWS 231945Z 19003G07KT 28/M08 RMK SNOW DEPTH  M





000
SAUS46 KLOX 231953
MTRSMX
METAR KSMX 231951Z 31010KT 8SM CLR 24/16 A2999 RMK AO2 SLP156
T02440156





000
SAUS46 KLOX 231949
MTRSDB
METAR KSDB 231948Z AUTO 18013G19KT 10SM CLR 30/M11 A3017 RMK AO2
SLP154 T03001106





000
SAUS46 KLOX 231949
MTRCQT
METAR KCQT 231947Z AUTO VRB03KT 10SM CLR 28/18 A2994 RMK AO2 SLP135
T02830178





000
SAUS46 KLOX 231936
MTRMWS
METAR KMWS 231930Z 23500G00KT MM/M07 RMK SNOW DEPTH  M





000
SAUS46 KLOX 231915
MTRMWS
METAR KMWS 231900Z 13002G05KT 27/M13 RMK SNOW DEPTH  M





000
SAUS46 KLOX 231857
MTRMWS
METAR KMWS 231845Z 15004G10KT 26/M10 RMK SNOW DEPTH  M





000
SAUS46 KLOX 231856
MTR9L2
METAR K9L2 231855Z AUTO VRB03KT 10SM CLR 28/01 A3003 RMK AO2 SLP152
T02780006 $





000
SAUS46 KLOX 231854
MTRLAX
METAR KLAX 231853Z 27009KT 10SM FEW009 22/17 A2998 RMK AO2 SLP149
T02220172 $





000
SAUS46 KLOX 231853
MTRSMX
METAR KSMX 231851Z 31009KT 280V340 9SM CLR 25/16 A3000 RMK AO2
SLP157 T02500156





000
SAUS46 KLOX 231849
MTRSDB
METAR KSDB 231848Z AUTO 15012KT 10SM CLR 29/M11 A3018 RMK AO2 SLP156
T02891111





000
SAUS46 KLOX 231848
MTRCQT
METAR KCQT 231847Z AUTO 00000KT 10SM CLR 28/17 A2995 RMK AO2 SLP140
T02830172





000
SAUS46 KLOX 231836
MTRMWS
METAR KMWS 231830Z 23500G00KT MM/M09 RMK SNOW DEPTH  M





000
SAUS46 KLOX 231815
MTRMWS
METAR KMWS 231800Z 15502G06KT 25/M10 RMK SNOW DEPTH  M





000
SAUS46 KLOX 231756
MTR9L2
METAR K9L2 231755Z AUTO 00000KT 10SM CLR 25/04 A3005 RMK AO2 SLP159
T02500039 10256 20111 50003 $





000
SAUS46 KLOX 231754
MTRMWS
METAR KMWS 231745Z 13507G13KT 25/M11 RMK SNOW DEPTH  M





000
SAUS46 KLOX 231754
MTRLAX
METAR KLAX 231753Z 27006KT 8SM FEW009 21/17 A2999 RMK AO2 SLP155
T02100172 10211 20183 51004 $





000
SAUS46 KLOX 231752
MTRSMX
METAR KSMX 231751Z 23004KT 8SM FEW010 21/15 A3001 RMK AO2 SLP163
T02110150 10211 20161 50005





000
SAUS46 KLOX 231749
MTRSDB
METAR KSDB 231748Z AUTO 15010KT 10SM CLR 28/M08 A3019 RMK AO2 SLP160
T02781078 10278 20194 51009





000
SAUS46 KLOX 231748
MTRCQT
METAR KCQT 231747Z AUTO 00000KT 9SM CLR 26/17 A2997 RMK AO2 SLP146
T02560167 10261 20172 50000





000
SAUS46 KLOX 231736
MTRMWS
METAR KMWS 231730Z 23500G00KT MM/M09 RMK SNOW DEPTH  M





000
SAUS46 KLOX 231729
MTRSMX
SPECI KSMX 231728Z 00000KT 8SM SCT008 20/15 A3002 RMK AO2 T02000150





000
SAUS46 KLOX 231715
MTRMWS
METAR KMWS 231700Z 09502G04KT 25/M07 RMK SNOW DEPTH  M





000
SAUS46 KLOX 231656
MTR9L2
METAR K9L2 231655Z AUTO 00000KT 10SM CLR 22/04 A3006 RMK AO2 SLP164
T02170039 $





000
SAUS46 KLOX 231654
MTRLAX
METAR KLAX 231653Z 28003KT 8SM FEW009 20/17 A2999 RMK AO2 SLP155
T02010172 $





000
SAUS46 KLOX 231654
MTRMWS
METAR KMWS 231645Z 32501G03KT 24/M06 RMK SNOW DEPTH  M





000
SAUS46 KLOX 231652
MTRSMX
METAR KSMX 231651Z 27004KT 8SM OVC007 18/14 A3002 RMK AO2 SLP166
T01830144





000
SAUS46 KLOX 231649
MTRSDB
METAR KSDB 231648Z AUTO 19010KT 10SM CLR 26/00 A3018 RMK AO2 SLP163
T02560000





000
SAUS46 KLOX 231648
MTRCQT
METAR KCQT 231647Z AUTO 00000KT 6SM HZ CLR 23/17 A2998 RMK AO2
SLP148 T02330172





000
SAUS46 KLOX 231636
MTRMWS
METAR KMWS 231630Z 23500G00KT MM/M05 RMK SNOW DEPTH  M





000
SAUS46 KLOX 231615
MTRMWS
METAR KMWS 231600Z 10005G11KT 22/M07 RMK SNOW DEPTH  M





000
SAUS46 KLOX 231556
MTR9L2
METAR K9L2 231555Z AUTO 00000KT 10SM CLR 18/03 A3005 RMK AO2 SLP164
T01780028 $





000
SAUS46 KLOX 231555
MTRLAX
METAR KLAX 231553Z 23003KT 7SM SCT009 19/17 A2999 RMK AO2 SLP153
T01920172 $





000
SAUS46 KLOX 231554
MTRMWS
METAR KMWS 231545Z 11004G09KT 21/M09 RMK SNOW DEPTH  M





000
SAUS46 KLOX 231553
MTRSMX
METAR KSMX 231551Z 00000KT 6SM HZ OVC005 17/14 A3001 RMK AO2 SLP162
T01720144





000
SAUS46 KLOX 231549
MTRSDB
METAR KSDB 231548Z AUTO 19010KT 10SM CLR 23/02 A3017 RMK AO2 SLP162
T02330017





000
SAUS46 KLOX 231548
MTRCQT
METAR KCQT 231547Z AUTO 00000KT 6SM HZ CLR 21/17 A2998 RMK AO2
SLP148 T02110172





000
SAUS46 KLOX 231536
MTRMWS
METAR KMWS 231530Z 23500G00KT MM/M06 RMK SNOW DEPTH  M





000
SAUS46 KLOX 231526
MTRLAX
SPECI KLAX 231525Z 26005KT 7SM BCFG SCT009 19/17 A2999 RMK AO2 SCT V
BKN $





000
SAUS46 KLOX 231515
MTRMWS
METAR KMWS 231500Z 09510G15KT 20/M07 RMK SNOW DEPTH  M





000
SAUS46 KLOX 231456
MTR9L2
METAR K9L2 231455Z AUTO 00000KT 10SM CLR 16/02 A3004 RMK AO2 SLP158
T01610022 53012 $





000
SAUS46 KLOX 231455
MTRLAX
METAR KLAX 231453Z 32004KT 7SM BCFG FEW001 OVC009 19/17 A2998 RMK
AO2 SLP151 FG BANK S-SW T01870167 53011 $





000
SAUS46 KLOX 231454
MTRMWS
METAR KMWS 231445Z 23500G00KT MM/M05 RMK SNOW DEPTH  M





000
SAUS46 KLOX 231453
MTRSMX
METAR KSMX 231451Z 00000KT 4SM BR OVC004 17/14 A2999 RMK AO2 SLP158
T01670144 51012





000
SAUS46 KLOX 231449
MTRSDB
METAR KSDB 231448Z AUTO 20008KT 10SM CLR 21/01 A3016 RMK AO2 SLP159
T02060011 53009





000
SAUS46 KLOX 231448
MTRCQT
METAR KCQT 231447Z AUTO 27003KT 7SM CLR 19/16 A2997 RMK AO2 SLP147
T01940161 53010





000
SAUS46 KLOX 231436
MTRMWS
METAR KMWS 231430Z 23500G00KT MM/M06 RMK SNOW DEPTH  M





000
SAUS46 KLOX 231415
MTRMWS
METAR KMWS 231400Z 10513G18KT 16/M05 RMK SNOW DEPTH  M





000
SAUS46 KLOX 231357
MTRMWS
METAR KMWS 231345Z 11013G17KT 16/M05 RMK SNOW DEPTH  M





000
SAUS46 KLOX 231356
MTR9L2
METAR K9L2 231355Z AUTO 00000KT 10SM CLR 11/01 A3002 RMK AO2 SLP155
T01110011 $





000
SAUS46 KLOX 231355
MTRLAX
METAR KLAX 231353Z 00000KT 5SM BCFG BR FEW001 BKN009 18/17 A2996 RMK
AO2 SLP143 BKN V SCT FG BANK S-SW T01810167 $





000
SAUS46 KLOX 231352
MTRLAX
SPECI KLAX 231350Z COR 00000KT 5SM BCFG BR FEW001 BKN009 18/17 A2996
RMK AO2 BKN V SCT FG BANK S-SW $





000
SAUS46 KLOX 231352
MTRSMX
METAR KSMX 231351Z 12003KT 3SM BR OVC003 16/14 A2999 RMK AO2 SLP158
T01610144





000
SAUS46 KLOX 231349
MTRSDB
METAR KSDB 231348Z AUTO 19010KT 10SM CLR 20/01 A3014 RMK AO2 SLP152
T02000006





000
SAUS46 KLOX 231348
MTRCQT
METAR KCQT 231347Z AUTO 00000KT 10SM CLR 17/15 A2995 RMK AO2 SLP140
T01720150





000
SAUS46 KLOX 231336
MTRMWS
METAR KMWS 231330Z 23500G00KT MM/M01 RMK SNOW DEPTH  M





000
SAUS46 KLOX 231315
MTRMWS
METAR KMWS 231300Z 10512G14KT 17/01 RMK SNOW DEPTH  M





000
SAUS46 KLOX 231256
MTR9L2
METAR K9L2 231255Z AUTO 00000KT 10SM CLR 12/02 A3001 RMK AO2 SLP147
T01170017 $





000
SAUS46 KLOX 231254
MTRMWS
METAR KMWS 231245Z 11013G18KT 17/01 RMK SNOW DEPTH  M





000
SAUS46 KLOX 231254
MTRLAX
METAR KLAX 231253Z 00000KT 9SM FEW008 SCT012 19/17 A2995 RMK AO2
SLP140 FU SCT012 T01850167 $





000
SAUS46 KLOX 231253
MTRSMX
METAR KSMX 231251Z 14004KT 2 1/2SM BR OVC002 16/14 A2997 RMK AO2
SLP151 T01610144





000
SAUS46 KLOX 231249
MTRSDB
METAR KSDB 231248Z AUTO 19010KT 10SM CLR 20/M01 A3013 RMK AO2 SLP145
T02001006





000
SAUS46 KLOX 231248
MTRCQT
METAR KCQT 231247Z AUTO 00000KT 10SM CLR 18/15 A2994 RMK AO2 SLP137
T01780150





000
SAUS46 KLOX 231236
MTRMWS
METAR KMWS 231230Z 23500G00KT MM/01 RMK SNOW DEPTH  M





000
SAUS46 KLOX 231231
MTRSMX
SPECI KSMX 231230Z AUTO 15005KT 2SM BR OVC003 16/14 A2997 RMK AO2
T01610144





000
SAUS46 KLOX 231215
MTRMWS
METAR KMWS 231200Z 10513G16KT 16/00 RMK SNOW DEPTH  M





000
SAUS46 KLOX 231204
MTRSMX
SPECI KSMX 231203Z AUTO 17006KT 3SM BR OVC002 16/14 A2996 RMK AO2
T01610139





000
SAUS46 KLOX 231156
MTR9L2
METAR K9L2 231155Z AUTO 33003KT 10SM CLR 13/03 A3000 RMK AO2 SLP143
T01330028 10228 20128 55002 $





000
SAUS46 KLOX 231154
MTRMWS
METAR KMWS 231145Z 10513G14KT 16/00 RMK SNOW DEPTH  M





000
SAUS46 KLOX 231154
MTRLAX
METAR KLAX 231153Z 36003KT 9SM FEW008 19/16 A2995 RMK AO2 SLP139
T01850161 10200 20183 55001 $





000
SAUS46 KLOX 231152
MTRSMX
METAR KSMX 231151Z AUTO 16007KT 2 1/2SM BR OVC002 16/14 A2996 RMK
AO2 VIS 2V3 SLP145 T01610139 10172 20150 55004





000
SAUS46 KLOX 231151
MTRLAX
SPECI KLAX 231150Z 36003KT 9SM FEW008 19/16 A2995 RMK AO2 $





000
SAUS46 KLOX 231149
MTRCQT
METAR KCQT 231147Z AUTO 00000KT 10SM CLR 18/16 A2994 RMK AO2 SLP136
T01780156 10194 20178 55002





000
SAUS46 KLOX 231149
MTRSDB
METAR KSDB 231148Z AUTO 19010KT 10SM CLR 20/M02 A3013 RMK AO2 SLP141
T02001017 10222 20189 56006





000
SAUS46 KLOX 231136
MTRMWS
METAR KMWS 231130Z 23500G00KT MM/00 RMK SNOW DEPTH  M





000
SAUS46 KLOX 231135
MTRSMX
SPECI KSMX 231134Z AUTO 18006KT 1 1/2SM BR OVC003 16/14 A2996 RMK
AO2 T01610144





000
SAUS46 KLOX 231125
MTRSMX
SPECI KSMX 231124Z AUTO 18006KT 2 1/2SM BR OVC003 17/14 A2996 RMK
AO2 T01670144





000
SAUS46 KLOX 231115
MTRMWS
METAR KMWS 231100Z 10012G16KT 16/01 RMK SNOW DEPTH  M





000
SAUS46 KLOX 231057
MTR9L2
METAR K9L2 231055Z AUTO 00000KT 10SM CLR 14/02 A3000 RMK AO2 SLP142
T01390017 $





000
SAUS46 KLOX 231054
MTRLAX
METAR KLAX 231053Z 00000KT 10SM FEW010 18/16 A2994 RMK AO2 SLP136
T01840161 $





000
SAUS46 KLOX 231054
MTRMWS
METAR KMWS 231045Z 09511G14KT 16/01 RMK SNOW DEPTH  M





000
SAUS46 KLOX 231052
MTRSMX
METAR KSMX 231051Z AUTO 14003KT 6SM BR OVC005 17/15 A2995 RMK AO2 PK
WND 09037/1031 SLP141 T01720150





000
SAUS46 KLOX 231049
MTRSDB
METAR KSDB 231048Z AUTO 20008KT 10SM CLR 19/M01 A3013 RMK AO2 SLP141
T01941011





000
SAUS46 KLOX 231048
MTRCQT
METAR KCQT 231047Z AUTO 00000KT 10SM CLR 18/16 A2993 RMK AO2 SLP134
T01830161





000
SAUS46 KLOX 231036
MTRMWS
METAR KMWS 231030Z 23500G00KT MM/02 RMK SNOW DEPTH  M





000
SAUS46 KLOX 231015
MTRMWS
METAR KMWS 231000Z 09510G13KT 17/02 RMK SNOW DEPTH  M





000
SAUS46 KLOX 230959
MTR9L2
METAR K9L2 230955Z AUTO 00000KT 10SM CLR 15/02 A3000 RMK AO2 SLP144
T01500022 $





000
SAUS46 KLOX 230956
MTRLAX
METAR KLAX 230953Z COR 00000KT 10SM FEW010 18/16 A2995 RMK AO2
SLP139 T01840161 $





000
SAUS46 KLOX 230954
MTRLAX
METAR KLAX 230953Z 00000KT 10SM CLR 19/16 A2995 RMK AO2 SLP139
T01900161 $





000
SAUS46 KLOX 230954
MTRMWS
METAR KMWS 230945Z 10011G13KT 17/02 RMK SNOW DEPTH  M





000
SAUS46 KLOX 230952
MTRSMX
METAR KSMX 230951Z AUTO 00000KT 6SM BR OVC005 17/15 A2996 RMK AO2
SLP146 T01720150





000
SAUS46 KLOX 230949
MTRCQT
METAR KCQT 230947Z AUTO 00000KT 10SM CLR 19/16 A2994 RMK AO2 SLP137
T01890161





000
SAUS46 KLOX 230949
MTRSDB
METAR KSDB 230948Z AUTO 23010KT 10SM CLR 20/M02 A3014 RMK AO2 SLP142
T02001022





000
SAUS46 KLOX 230943
MTRSMX
SPECI KSMX 230942Z AUTO 00000KT 5SM BR OVC005 17/15 A2997 RMK AO2
T01720150





000
SAUS46 KLOX 230936
MTRMWS
METAR KMWS 230930Z 23500G00KT MM/01 RMK SNOW DEPTH  M





000
SAUS46 KLOX 230915
MTRMWS
METAR KMWS 230900Z 11008G11KT 16/02 RMK SNOW DEPTH  M





000
SAUS46 KLOX 230907
MTRSMX
SPECI KSMX 230906Z AUTO 00000KT 5SM BR OVC004 17/15 A2997 RMK AO2
T01720150





000
SAUS46 KLOX 230856
MTR9L2
METAR K9L2 230855Z AUTO 18007KT 10SM CLR 18/03 A3001 RMK AO2 SLP143
T01780028 51007 $





000
SAUS46 KLOX 230855
MTRLAX
METAR KLAX 230853Z 09003KT 10SM CLR 19/16 A2995 RMK AO2 SLP140
T01920161 50000 $





000
SAUS46 KLOX 230854
MTRMWS
METAR KMWS 230845Z 09508G12KT 17/01 RMK SNOW DEPTH  M





000
SAUS46 KLOX 230852
MTRSMX
METAR KSMX 230851Z AUTO 00000KT 5SM HZ OVC005 17/14 A2997 RMK AO2
SLP149 T01720144 55004





000
SAUS46 KLOX 230849
MTRSDB
METAR KSDB 230848Z AUTO 28011KT 10SM CLR 20/05 A3015 RMK AO2 SLP146
T02000050 58001





000
SAUS46 KLOX 230848
MTRCQT
METAR KCQT 230847Z AUTO 00000KT 10SM CLR 19/16 A2995 RMK AO2 SLP138
T01890161 51001





000
SAUS46 KLOX 230836
MTRMWS
METAR KMWS 230830Z 23500G00KT MM/01 RMK SNOW DEPTH  M





000
SAUS46 KLOX 230815
MTRMWS
METAR KMWS 230800Z 12007G11KT 16/02 RMK SNOW DEPTH  M





000
SAUS46 KLOX 230807
MTRSMX
SPECI KSMX 230805Z AUTO 00000KT 7SM BKN005 16/13 A2997 RMK AO2
T01610133





000
SAUS46 KLOX 230756
MTR9L2
METAR K9L2 230755Z AUTO 20004KT 10SM CLR 18/03 A3000 RMK AO2 SLP142
T01830028 403390128 $





000
SAUS46 KLOX 230754
MTRMWS
METAR KMWS 230745Z 11507G08KT 16/03 RMK SNOW DEPTH  M





000
SAUS46 KLOX 230754
MTRLAX
METAR KLAX 230753Z 00000KT 10SM CLR 19/17 A2995 RMK AO2 SLP140
T01910172 402280178 $





000
SAUS46 KLOX 230753
MTRSMX
METAR KSMX 230751Z AUTO 00000KT 8SM FEW004 16/13 A2996 RMK AO2
SLP147 T01610133 402440150





000
SAUS46 KLOX 230749
MTRSDB
METAR KSDB 230748Z AUTO 27007KT 10SM CLR 19/06 A3015 RMK AO2 SLP147
T01940061 403060178





000
SAUS46 KLOX 230748
MTRCQT
METAR KCQT 230747Z AUTO 00000KT 10SM CLR 19/17 A2995 RMK AO2 SLP138
T01940167 402670172





000
SAUS46 KLOX 230736
MTRMWS
METAR KMWS 230730Z 23500G00KT MM/04 RMK SNOW DEPTH  M





000
SAUS46 KLOX 230715
MTRMWS
METAR KMWS 230700Z 11510G12KT 16/03 RMK SNOW DEPTH  M





000
SAUS46 KLOX 230659
MTR9L2
METAR K9L2 230655Z AUTO 17003KT 10SM CLR 21/03 A2999 RMK AO2 SLP139
T02060033 $





000
SAUS46 KLOX 230654
MTRMWS
METAR KMWS 230645Z 12508G09KT 17/03 RMK SNOW DEPTH  M





000
SAUS46 KLOX 230654
MTRLAX
METAR KLAX 230653Z 00000KT 10SM CLR 18/17 A2995 RMK AO2 SLP140
T01830172 $





000
SAUS46 KLOX 230653
MTRSMX
METAR KSMX 230651Z AUTO 17003KT 8SM CLR 16/13 A2998 RMK AO2 SLP151
T01610133





000
SAUS46 KLOX 230649
MTRSDB
METAR KSDB 230648Z AUTO 27005KT 10SM CLR 22/01 A3015 RMK AO2 SLP147
T02170006





000
SAUS46 KLOX 230648
MTRCQT
METAR KCQT 230647Z AUTO 00000KT 10SM CLR 19/17 A2995 RMK AO2 SLP139
T01940167





000
SAUS46 KLOX 230636
MTRMWS
METAR KMWS 230630Z 23500G00KT MM/03 RMK SNOW DEPTH  M





000
SAUS46 KLOX 230615
MTRMWS
METAR KMWS 230600Z 09007G09KT 17/03 RMK SNOW DEPTH  M





000
SAUS46 KLOX 230559
MTR9L2
METAR K9L2 230555Z AUTO 00000KT 10SM CLR 23/08 A2998 RMK AO2 SLP136
T02280078 10333 20228 51010 $





000
SAUS46 KLOX 230555
MTRLAX
METAR KLAX 230553Z 25005KT 10SM CLR 18/17 A2995 RMK AO2 SLP139
T01830172 52009 $





000
SAUS46 KLOX 230554
MTRMWS
METAR KMWS 230545Z 08007G10KT 17/03 RMK SNOW DEPTH  M





000
SAUS46 KLOX 230552
MTRSMX
METAR KSMX 230551Z AUTO 00000KT 9SM CLR 17/13 A2998 RMK AO2 SLP153
T01670133 10222 20167 50003





000
SAUS46 KLOX 230549
MTRSDB
METAR KSDB 230548Z AUTO 32006KT 10SM CLR 22/02 A3015 RMK AO2 SLP148
T02220022 10283 20200 51005





000
SAUS46 KLOX 230548
MTRCQT
METAR KCQT 230547Z AUTO 00000KT 10SM CLR 19/17 A2994 RMK AO2 SLP137
T01940167 10250 20189 51009





000
SAUS46 KLOX 230536
MTRMWS
METAR KMWS 230530Z 23500G00KT MM/04 RMK SNOW DEPTH  M





000
SAUS46 KLOX 230515
MTRMWS
METAR KMWS 230500Z 09008G14KT 18/01 RMK SNOW DEPTH  M





000
SAUS46 KLOX 230459
MTR9L2
METAR K9L2 230455Z AUTO 27009KT 10SM CLR 25/07 A2997 RMK AO2 SLP134
T02500072 $





000
SAUS46 KLOX 230457
MTRMWS
METAR KMWS 230445Z 08007G10KT 17/02 RMK SNOW DEPTH  M





000
SAUS46 KLOX 230455
MTRLAX
METAR KLAX 230453Z 24005KT 10SM CLR 19/17 A2994 RMK AO2 SLP138
T01890172 $





000
SAUS46 KLOX 230452
MTRSMX
METAR KSMX 230451Z AUTO 00000KT 8SM CLR 18/14 A2999 RMK AO2 SLP155
T01780144





000
SAUS46 KLOX 230449
MTRSDB
METAR KSDB 230448Z AUTO 25007KT 10SM CLR 21/06 A3015 RMK AO2 SLP151
T02060061





000
SAUS46 KLOX 230448
MTRCQT
METAR KCQT 230447Z AUTO 00000KT 10SM CLR 19/17 A2993 RMK AO2 SLP134
T01940167





000
SAUS46 KLOX 230436
MTRMWS
METAR KMWS 230430Z 23500G00KT MM/02 RMK SNOW DEPTH  M





000
SAUS46 KLOX 230415
MTRMWS
METAR KMWS 230400Z 08008G11KT 17/05 RMK SNOW DEPTH  M





000
SAUS46 KLOX 230359
MTR9L2
METAR K9L2 230355Z AUTO 23009KT 10SM CLR 26/04 A2997 RMK AO2 SLP132
T02560044 $





000
SAUS46 KLOX 230355
MTRLAX
METAR KLAX 230353Z 25006KT 10SM FEW007 19/18 A2993 RMK AO2 SLP134
T01940178





000
SAUS46 KLOX 230354
MTRMWS
METAR KMWS 230345Z 09008G09KT 17/05 RMK SNOW DEPTH  M





000
SAUS46 KLOX 230353
MTRSMX
METAR KSMX 230351Z AUTO 00000KT 8SM CLR 18/15 A2998 RMK AO2 SLP152
T01780150





000
SAUS46 KLOX 230349
MTRSDB
METAR KSDB 230348Z AUTO 20008KT 10SM CLR 21/07 A3014 RMK AO2 SLP150
T02110072





000
SAUS46 KLOX 230348
MTRCQT
METAR KCQT 230347Z AUTO 00000KT 10SM CLR 20/17 A2993 RMK AO2 SLP131
T02000167





000
SAUS46 KLOX 230336
MTRMWS
METAR KMWS 230330Z 23500G00KT MM/06 RMK SNOW DEPTH  M





000
SAUS46 KLOX 230333
MTRLAX
SPECI KLAX 230332Z 27009KT 10SM FEW007 20/18 A2993 RMK AO2





000
SAUS46 KLOX 230315
MTRMWS
METAR KMWS 230300Z 12507G09KT 18/01 RMK SNOW DEPTH  M





000
SAUS46 KLOX 230259
MTR9L2
METAR K9L2 230255Z AUTO 25011KT 10SM CLR 27/07 A2995 RMK AO2 SLP127
T02720072 53004 $





000
SAUS46 KLOX 230255
MTRLAX
METAR KLAX 230253Z 26011KT 10SM FEW012 20/18 A2992 RMK AO2 SLP131
T02000178 53001





000
SAUS46 KLOX 230253
MTRSMX
METAR KSMX 230251Z 31005KT 9SM CLR 18/14 A2997 RMK AO2 SLP151
T01830144 53006





000
SAUS46 KLOX 230249
MTRSDB
METAR KSDB 230248Z AUTO 19010KT 10SM CLR 22/07 A3013 RMK AO2 SLP151
T02170072 53005





000
SAUS46 KLOX 230248
MTRCQT
METAR KCQT 230247Z AUTO 28004KT 10SM CLR 21/17 A2992 RMK AO2 SLP129
T02060167 53005





000
SAUS46 KLOX 230236
MTRMWS
METAR KMWS 230230Z 23500G00KT MM/01 RMK SNOW DEPTH  M





000
SAUS46 KLOX 230215
MTRMWS
METAR KMWS 230200Z 16005G08KT 20/03 RMK SNOW DEPTH  M





000
SAUS46 KLOX 230156
MTR9L2
METAR K9L2 230155Z AUTO 24006KT 10SM CLR 30/01 A2993 RMK AO2 SLP122
T03000011 $





000
SAUS46 KLOX 230155
MTRLAX
METAR KLAX 230153Z 27009KT 10SM FEW014 21/17 A2992 RMK AO2 SLP130
T02060172





000
SAUS46 KLOX 230154
MTRMWS
METAR KMWS 230145Z 20001G06KT 21/06 RMK SNOW DEPTH  M





000
SAUS46 KLOX 230152
MTRSMX
METAR KSMX 230151Z 31010KT 8SM CLR 19/15 A2997 RMK AO2 SLP148
T01890150





000
SAUS46 KLOX 230149
MTRCQT
METAR KCQT 230147Z AUTO 27006KT 10SM CLR 22/17 A2990 RMK AO2 SLP124
T02220167





000
SAUS46 KLOX 230149
MTRSDB
METAR KSDB 230148Z AUTO 19013KT 10SM CLR 23/06 A3012 RMK AO2 SLP147
T02330061





000
SAUS46 KLOX 230136
MTRMWS
METAR KMWS 230130Z 23500G00KT MM/06 RMK SNOW DEPTH  M





000
SAUS46 KLOX 230115
MTRMWS
METAR KMWS 230100Z 21006G07KT 23/07 RMK SNOW DEPTH  M





000
SAUS46 KLOX 230056
MTR9L2
METAR K9L2 230055Z AUTO 27006KT 10SM CLR 33/M03 A2993 RMK AO2 SLP119
T03281028 $





000
SAUS46 KLOX 230054
MTRMWS
METAR KMWS 230045Z 23003G05KT 22/05 RMK SNOW DEPTH  M





000
SAUS46 KLOX 230054
MTRLAX
METAR KLAX 230053Z 28011KT 10SM FEW014 21/17 A2992 RMK AO2 SLP129
T02110172





000
SAUS46 KLOX 230053
MTRSMX
METAR KSMX 230051Z 32010KT 8SM CLR 21/15 A2996 RMK AO2 SLP145
T02110150





000
SAUS46 KLOX 230049
MTRSDB
METAR KSDB 230048Z AUTO 19013G20KT 10SM CLR 27/04 A3012 RMK AO2
SLP143 T02670039





000
SAUS46 KLOX 230048
MTRCQT
METAR KCQT 230047Z AUTO VRB05KT 10SM CLR 24/16 A2990 RMK AO2 SLP122
T02440161





000
SAUS46 KLOX 230036
MTRMWS
METAR KMWS 230030Z 23500G00KT MM/07 RMK SNOW DEPTH  M





000
SAUS46 KLOX 230015
MTRMWS
METAR KMWS 230000Z 21003G05KT 25/09 RMK SNOW DEPTH  M





000
SAUS46 KLOX 222359
MTR9L2
METAR K9L2 222355Z AUTO 20005KT 10SM CLR 33/M01 A2994 RMK AO2 SLP121
T03281011 10339 20256 56015 $





000
SAUS46 KLOX 222355
MTRLAX
METAR KLAX 222353Z 25009KT 10SM FEW014 22/17 A2992 RMK AO2 SLP129
T02170172 10228 20217 56015





000
SAUS46 KLOX 222354
MTRMWS
METAR KMWS 222345Z 23504G07KT 25/10 RMK SNOW DEPTH  M





000
SAUS46 KLOX 222352
MTRSMX
METAR KSMX 222351Z 32013KT 9SM CLR 23/15 A2996 RMK AO2 SLP144
T02280150 10244 20228 56010





000
SAUS46 KLOX 222349
MTRSDB
METAR KSDB 222348Z AUTO 17011G18KT 10SM CLR 28/03 A3012 RMK AO2
SLP140 T02830033 10306 20278 56009





000
SAUS46 KLOX 222349
MTRCQT
METAR KCQT 222347Z AUTO VRB03KT 10SM CLR 25/17 A2990 RMK AO2 SLP123
T02500167 10267 20244 58014





000
SAUS46 KLOX 222336
MTRMWS
METAR KMWS 222330Z 23500G00KT MM/10 RMK SNOW DEPTH  M





000
SAUS46 KLOX 222315
MTRMWS
METAR KMWS 222300Z 17501G06KT 26/05 RMK SNOW DEPTH  M





000
SAUS46 KLOX 222256
MTR9L2
METAR K9L2 222255Z AUTO 08004KT 10SM CLR 33/M01 A2995 RMK AO2 SLP124
T03281011 $





000
SAUS46 KLOX 222254
MTRMWS
METAR KMWS 222245Z 11503G11KT 26/02 RMK SNOW DEPTH  M





000
SAUS46 KLOX 222254
MTRLAX
METAR KLAX 222253Z 26011KT 10SM FEW014 22/17 A2993 RMK AO2 SLP133
T02220172





000
SAUS46 KLOX 222252
MTRSMX
METAR KSMX 222251Z 31014KT 9SM CLR 23/15 A2996 RMK AO2 SLP146
T02330150





000
SAUS46 KLOX 222249
MTRCQT
METAR KCQT 222247Z AUTO VRB03KT 10SM CLR 25/16 A2992 RMK AO2 SLP127
T02500161





000
SAUS46 KLOX 222249
MTRSDB
METAR KSDB 222248Z AUTO 18012G18KT 10SM CLR 29/01 A3012 RMK AO2
SLP141 T02940011





000
SAUS46 KLOX 222236
MTRMWS
METAR KMWS 222230Z 23500G00KT MM/06 RMK SNOW DEPTH  M





000
SAUS46 KLOX 222215
MTRMWS
METAR KMWS 222200Z 23500G00KT MM/09 RMK SNOW DEPTH  M





000
SAUS46 KLOX 222159
MTR9L2
METAR K9L2 222155Z AUTO VRB03KT 10SM CLR 32/M02 A2997 RMK AO2 SLP128
T03221022 TSNO $





000
SAUS46 KLOX 222154
MTRMWS
METAR KMWS 222145Z 20505G10KT 26/09 RMK SNOW DEPTH  M





000
SAUS46 KLOX 222154
MTRLAX
METAR KLAX 222153Z 27013G17KT 10SM FEW014 22/17 A2995 RMK AO2 SLP138
T02220172





000
SAUS46 KLOX 222152
MTRSMX
METAR KSMX 222151Z 31009KT 9SM CLR 24/16 A2997 RMK AO2 SLP148
T02440156





000
SAUS46 KLOX 222149
MTRSDB
METAR KSDB 222148Z AUTO 17014G17KT 10SM CLR 31/M01 A3013 RMK AO2
SLP142 T03061011





000
SAUS46 KLOX 222148
MTRCQT
METAR KCQT 222147Z AUTO VRB03KT 10SM CLR 24/17 A2993 RMK AO2 SLP133
T02440167





000
SAUS46 KLOX 222136
MTRMWS
METAR KMWS 222130Z 23500G00KT MM/08 RMK SNOW DEPTH  M





000
SAUS46 KLOX 222115
MTRMWS
METAR KMWS 222100Z 23004G06KT 26/09 RMK SNOW DEPTH  M





000
SAUS46 KLOX 222059
MTR9L2
METAR K9L2 222055Z AUTO VRB03KT 10SM CLR 32/M01 A2998 RMK AO2 SLP135
T03221006 58021 $





000
SAUS46 KLOX 222054
MTRLAX
METAR KLAX 222053Z 26012KT 10SM SCT014 23/17 A2996 RMK AO2 SLP144
T02280167 58013





000
SAUS46 KLOX 222054
MTRMWS
METAR KMWS 222045Z 24005G06KT 26/08 RMK SNOW DEPTH  M





000
SAUS46 KLOX 222052
MTRSMX
METAR KSMX 222051Z 31012KT 9SM CLR 24/15 A2999 RMK AO2 SLP154
T02390150 58011





000
SAUS46 KLOX 222049
MTRSDB
METAR KSDB 222048Z AUTO 17013G19KT 10SM CLR 30/M06 A3015 RMK AO2
SLP148 T03001061 58009





000
SAUS46 KLOX 222048
MTRCQT
METAR KCQT 222047Z AUTO VRB03KT 10SM CLR 25/17 A2994 RMK AO2 SLP137
T02500167 58012





000
SAUS46 KLOX 222036
MTRMWS
METAR KMWS 222030Z 23500G00KT MM/09 RMK SNOW DEPTH  M





000
SAUS46 KLOX 222015
MTRMWS
METAR KMWS 222000Z 25004G07KT 27/07 RMK SNOW DEPTH  M





000
SAUS46 KLOX 221959
MTR9L2
METAR K9L2 221955Z AUTO 18004KT 10SM CLR 30/03 A3001 RMK AO2 SLP146
T03000033 $





000
SAUS46 KLOX 221954
MTRLAX
METAR KLAX 221953Z 24010KT 10SM SCT014 23/17 A2998 RMK AO2 SLP150
T02280167





000
SAUS46 KLOX 221954
MTRMWS
METAR KMWS 221945Z 23502G07KT 27/05 RMK SNOW DEPTH  M





000
SAUS46 KLOX 221953
MTRSMX
METAR KSMX 221951Z 30007KT 9SM CLR 24/16 A3000 RMK AO2 SLP160
T02440156





000
SAUS46 KLOX 221949
MTRSDB
METAR KSDB 221948Z AUTO 16012G19KT 10SM CLR 30/M03 A3016 RMK AO2
SLP154 T03001028





000
SAUS46 KLOX 221948
MTRCQT
METAR KCQT 221947Z AUTO VRB05KT 10SM CLR 26/17 A2996 RMK AO2 SLP142
T02610172





000
SAUS46 KLOX 221936
MTRMWS
METAR KMWS 221930Z 23500G00KT MM/06 RMK SNOW DEPTH  M





000
SAUS46 KLOX 221915
MTRMWS
METAR KMWS 221900Z 24502G04KT 28/05 RMK SNOW DEPTH  M





000
SAUS46 KLOX 221856
MTR9L2
METAR K9L2 221855Z AUTO 00000KT 10SM CLR 28/08 A3003 RMK AO2 SLP153
T02830078 $





000
SAUS46 KLOX 221855
MTRLAX
METAR KLAX 221853Z 26009KT 10SM SCT014 22/17 A2999 RMK AO2 SLP154
T02220172





000
SAUS46 KLOX 221854
MTRMWS
METAR KMWS 221845Z 18500G03KT 27/03 RMK SNOW DEPTH  M





000
SAUS46 KLOX 221853
MTRSMX
METAR KSMX 221851Z 32008KT 290V350 8SM CLR 24/16 A3002 RMK AO2
SLP164 T02390156





000
SAUS46 KLOX 221849
MTRSDB
METAR KSDB 221848Z AUTO 15012G17KT 10SM CLR 29/M03 A3018 RMK AO2
SLP159 T02941028





000
SAUS46 KLOX 221848
MTRCQT
METAR KCQT 221847Z AUTO 25004KT 10SM CLR 26/17 A2997 RMK AO2 SLP146
T02560172





000
SAUS46 KLOX 221836
MTRMWS
METAR KMWS 221830Z 23500G00KT MM/03 RMK SNOW DEPTH  M





000
SAUS46 KLOX 221815
MTRMWS
METAR KMWS 221800Z 24003G06KT 26/04 RMK SNOW DEPTH  M





000
SAUS46 KLOX 221759
MTR9L2
METAR K9L2 221755Z AUTO 13003KT 10SM CLR 25/08 A3005 RMK AO2 SLP160
T02500083 10250 20128 50002 $





000
SAUS46 KLOX 221755
MTRLAX
METAR KLAX 221753Z 25007KT 10SM SCT014 22/17 A3000 RMK AO2 SLP157
T02220172 10222 20178 51009





000
SAUS46 KLOX 221754
MTRMWS
METAR KMWS 221745Z 17504G11KT 25/03 RMK SNOW DEPTH  M





000
SAUS46 KLOX 221753
MTRSMX
METAR KSMX 221751Z 28006KT 9SM CLR 23/14 A3002 RMK AO2 SLP165
T02280144 10228 20150 50004





000
SAUS46 KLOX 221749
MTRSDB
METAR KSDB 221748Z AUTO 18010KT 10SM CLR 28/M02 A3018 RMK AO2 SLP159
T02781022 10278 20178 51007





000
SAUS46 KLOX 221748
MTRCQT
METAR KCQT 221747Z AUTO VRB03KT 10SM CLR 25/17 A2998 RMK AO2 SLP149
T02500172 10256 20172 50004





000
SAUS46 KLOX 221736
MTRMWS
METAR KMWS 221730Z 23500G00KT MM/03 RMK SNOW DEPTH  M





000
SAUS46 KLOX 221715
MTRMWS
METAR KMWS 221700Z 17500G04KT 22/03 RMK SNOW DEPTH  M





000
SAUS46 KLOX 221659
MTR9L2
METAR K9L2 221655Z AUTO 15004KT 10SM CLR 22/08 A3006 RMK AO2 SLP163
T02170078





000
SAUS46 KLOX 221654
MTRLAX
METAR KLAX 221653Z 26006KT 10SM SCT014 21/17 A3000 RMK AO2 SLP156
T02110172





000
SAUS46 KLOX 221654
MTRMWS
METAR KMWS 221645Z 11005G09KT 23/04 RMK SNOW DEPTH  M





000
SAUS46 KLOX 221653
MTRSMX
METAR KSMX 221651Z 00000KT 9SM SCT012 20/14 A3002 RMK AO2 SLP168
T02000144





000
SAUS46 KLOX 221649
MTRSDB
METAR KSDB 221648Z AUTO VRB05KT 10SM CLR 26/00 A3017 RMK AO2 SLP160
T02610000





000
SAUS46 KLOX 221648
MTRCQT
METAR KCQT 221647Z AUTO 00000KT 8SM CLR 22/17 A2998 RMK AO2 SLP150
T02220167





000
SAUS46 KLOX 221636
MTRMWS
METAR KMWS 221630Z 23500G00KT MM/02 RMK SNOW DEPTH  M





000
SAUS46 KLOX 221615
MTRMWS
METAR KMWS 221600Z 14005G08KT 21/01 RMK SNOW DEPTH  M





000
SAUS46 KLOX 221559
MTR9L2
METAR K9L2 221555Z AUTO 00000KT 10SM CLR 18/06 A3005 RMK AO2 SLP163
T01830061 $





000
SAUS46 KLOX 221554
MTRLAX
METAR KLAX 221553Z 23003KT 10SM FEW012 21/17 A2999 RMK AO2 SLP153
T02110172





000
SAUS46 KLOX 221554
MTRMWS
METAR KMWS 221545Z 16002G04KT 22/01 RMK SNOW DEPTH  M





000
SAUS46 KLOX 221553
MTRSMX
METAR KSMX 221551Z 00000KT 8SM OVC010 18/14 A3001 RMK AO2 SLP164
T01830144





000
SAUS46 KLOX 221549
MTRSDB
METAR KSDB 221548Z AUTO 05003KT 10SM CLR 24/05 A3016 RMK AO2 SLP160
T02390050





000
SAUS46 KLOX 221548
MTRCQT
METAR KCQT 221547Z AUTO 00000KT 8SM CLR 21/17 A2998 RMK AO2 SLP149
T02110172





000
SAUS46 KLOX 221536
MTRMWS
METAR KMWS 221530Z 23500G00KT MM/00 RMK SNOW DEPTH  M





000
SAUS46 KLOX 221515
MTRMWS
METAR KMWS 221500Z 12001G04KT 20/M01 RMK SNOW DEPTH  M





000
SAUS46 KLOX 221459
MTR9L2
METAR K9L2 221455Z AUTO 00000KT 10SM CLR 17/05 A3004 RMK AO2 SLP159
T01670050 53011 $





000
SAUS46 KLOX 221454
MTRMWS
METAR KMWS 221445Z 23500G00KT MM/M01 RMK SNOW DEPTH  M





000
SAUS46 KLOX 221454
MTRLAX
METAR KLAX 221453Z 00000KT 8SM BCFG FEW008 SCT012 19/18 A2997 RMK
AO2 SLP148 T01940178 53008 $





000
SAUS46 KLOX 221452
MTRSMX
METAR KSMX 221451Z 00000KT 8SM OVC010 17/14 A3001 RMK AO2 SLP162
T01720139 53012





000
SAUS46 KLOX 221449
MTRCQT
METAR KCQT 221447Z AUTO 00000KT 9SM CLR 19/16 A2997 RMK AO2 SLP145
T01940156 53008





000
SAUS46 KLOX 221449
MTRSDB
METAR KSDB 221448Z AUTO 35003KT 10SM CLR 21/06 A3015 RMK AO2 SLP160
T02060061 53007 $





000
SAUS46 KLOX 221436
MTRMWS
METAR KMWS 221430Z 23500G00KT MM/M02 RMK SNOW DEPTH  M





000
SAUS46 KLOX 221415
MTRMWS
METAR KMWS 221400Z 08005G07KT 16/M01 RMK SNOW DEPTH  M





000
SAUS46 KLOX 221359
MTR9L2
METAR K9L2 221355Z AUTO 00000KT 10SM CLR 13/04 A3002 RMK AO2 SLP155
T01330039 $





000
SAUS46 KLOX 221354
MTRMWS
METAR KMWS 221345Z 11506G09KT 17/M01 RMK SNOW DEPTH  M





000
SAUS46 KLOX 221354
MTRLAX
METAR KLAX 221353Z 00000KT 9SM BCFG FEW008 SCT012 18/17 A2996 RMK
AO2 SLP143 T01840167 $





000
SAUS46 KLOX 221353
MTRSMX
METAR KSMX 221351Z 00000KT 8SM BKN011 16/13 A2999 RMK AO2 SLP157
T01560133





000
SAUS46 KLOX 221349
MTRSDB
METAR KSDB 221348Z AUTO 33007KT 10SM CLR 18/06 A3014 RMK AO2 SLP156
T01830061 $





000
SAUS46 KLOX 221348
MTRCQT
METAR KCQT 221347Z AUTO 00000KT 7SM CLR 17/16 A2996 RMK AO2 SLP142
T01720156





000
SAUS46 KLOX 221336
MTRMWS
METAR KMWS 221330Z 23500G00KT MM/M03 RMK SNOW DEPTH  M





000
SAUS46 KLOX 221315
MTRMWS
METAR KMWS 221300Z 11009G12KT 16/M03 RMK SNOW DEPTH  M





000
SAUS46 KLOX 221259
MTR9L2
METAR K9L2 221255Z AUTO 00000KT 10SM CLR 13/04 A3001 RMK AO2 SLP149
T01330044 $





000
SAUS46 KLOX 221254
MTRMWS
METAR KMWS 221245Z 11009G11KT 16/M04 RMK SNOW DEPTH  M





000
SAUS46 KLOX 221254
MTRLAX
METAR KLAX 221253Z 00000KT 10SM FEW009 18/16 A2995 RMK AO2 SLP141
T01840161 $





000
SAUS46 KLOX 221253
MTRSMX
METAR KSMX 221251Z 00000KT 9SM OVC010 15/13 A2998 RMK AO2 SLP153
T01500128





000
SAUS46 KLOX 221249
MTRSDB
METAR KSDB 221248Z AUTO 33007KT 10SM CLR 18/07 A3013 RMK AO2 SLP150
T01780072 $





000
SAUS46 KLOX 221248
MTRCQT
METAR KCQT 221247Z AUTO 00000KT 9SM CLR 17/16 A2995 RMK AO2 SLP139
T01720156





000
SAUS46 KLOX 221236
MTRMWS
METAR KMWS 221230Z 23500G00KT MM/M01 RMK SNOW DEPTH  M





000
SAUS46 KLOX 221215
MTRMWS
METAR KMWS 221200Z 11010G13KT 16/M01 RMK SNOW DEPTH  M





000
SAUS46 KLOX 221157
MTR9L2
METAR K9L2 221155Z AUTO 00000KT 10SM CLR 15/05 A3001 RMK AO2 SLP146
T01500050 10217 20150 53004 $





000
SAUS46 KLOX 221154
MTRMWS
METAR KMWS 221145Z 09507G11KT 16/M02 RMK SNOW DEPTH  M





000
SAUS46 KLOX 221154
MTRLAX
METAR KLAX 221153Z 00000KT 10SM FEW009 19/17 A2995 RMK AO2 SLP140
T01930167 10200 20189 57005 $





000
SAUS46 KLOX 221152
MTRSMX
METAR KSMX 221151Z AUTO 15004KT 9SM OVC010 17/14 A2997 RMK AO2
SLP149 T01670139 10183 20150 56009





000
SAUS46 KLOX 221149
MTRSDB
METAR KSDB 221148Z AUTO 33010KT 10SM CLR 18/08 A3013 RMK AO2 SLP146
T01780078 10194 20178 56002 $





000
SAUS46 KLOX 221148
MTRCQT
METAR KCQT 221147Z AUTO 00000KT 10SM CLR 17/16 A2994 RMK AO2 SLP137
T01720156 10194 20172 58006





000
SAUS46 KLOX 221145
MTRLAX
SPECI KLAX 221143Z 10003KT 10SM SCT009 19/17 A2995 RMK AO2 $





000
SAUS46 KLOX 221138
MTRSMX
SPECI KSMX 221137Z AUTO 12003KT 8SM BKN011 16/13 A2997 RMK AO2
T01610133





000
SAUS46 KLOX 221136
MTRMWS
METAR KMWS 221130Z 23500G00KT MM/M04 RMK SNOW DEPTH  M





000
SAUS46 KLOX 221115
MTRMWS
METAR KMWS 221100Z 08507G11KT 16/M05 RMK SNOW DEPTH  M





000
SAUS46 KLOX 221112
MTRLAX
SPECI KLAX 221059Z COR 04004KT 10SM OVC009 19/17 A2996 RMK AO2 $





000
SAUS46 KLOX 221100
MTRLAX
SPECI KLAX 221059Z 04004KT 10SM OVC009 A2996 RMK AO2 $





000
SAUS46 KLOX 221059
MTR9L2
METAR K9L2 221055Z AUTO 00000KT 10SM CLR 16/06 A3000 RMK AO2 SLP143
T01560056 $





000
SAUS46 KLOX 221054
MTRMWS
METAR KMWS 221045Z 09008G12KT 16/M05 RMK SNOW DEPTH  M





000
SAUS46 KLOX 221054
MTRLAX
METAR KLAX 221053Z 04003KT 10SM FEW009 BKN011 19/17 A2996 RMK AO2
SLP141 T01940172 $





000
SAUS46 KLOX 221053
MTRSMX
METAR KSMX 221051Z AUTO 12004KT 8SM CLR 16/13 A2998 RMK AO2 SLP152
T01560128





000
SAUS46 KLOX 221049
MTRSDB
METAR KSDB 221048Z AUTO 33013KT 10SM CLR 18/08 A3013 RMK AO2 SLP145
T01830078 $





000
SAUS46 KLOX 221048
MTRCQT
METAR KCQT 221047Z AUTO 00000KT 6SM BR CLR 18/16 A2995 RMK AO2
SLP139 T01830161





000
SAUS46 KLOX 221036
MTRMWS
METAR KMWS 221030Z 23500G00KT MM/M04 RMK SNOW DEPTH  M





000
SAUS46 KLOX 221017
MTRLAX
SPECI KLAX 221016Z 00000KT 10SM FEW009 BKN011 19/17 A2996 RMK AO2 $





000
SAUS46 KLOX 221015
MTRMWS
METAR KMWS 221000Z 09006G08KT 17/M04 RMK SNOW DEPTH  M





000
SAUS46 KLOX 220957
MTR9L2
METAR K9L2 220955Z AUTO 18007KT 10SM CLR 18/07 A3000 RMK AO2 SLP141
T01780067 $





000
SAUS46 KLOX 220954
MTRLAX
METAR KLAX 220953Z 00000KT 10SM SCT010 19/17 A2996 RMK AO2 SLP143
T01940172 $





000
SAUS46 KLOX 220954
MTRMWS
METAR KMWS 220945Z 10006G09KT 16/M05 RMK SNOW DEPTH  M





000
SAUS46 KLOX 220953
MTRSMX
METAR KSMX 220951Z AUTO 16003KT 9SM CLR 16/13 A2998 RMK AO2 SLP153
T01610133





000
SAUS46 KLOX 220949
MTRSDB
METAR KSDB 220948Z AUTO 33013KT 10SM CLR 18/08 A3013 RMK AO2 SLP144
T01780083 $





000
SAUS46 KLOX 220948
MTRCQT
METAR KCQT 220947Z AUTO 00000KT 10SM CLR 19/16 A2996 RMK AO2 SLP143
T01890161





000
SAUS46 KLOX 220936
MTRMWS
METAR KMWS 220930Z 23500G00KT MM/M05 RMK SNOW DEPTH  M





000
SAUS46 KLOX 220915
MTRMWS
METAR KMWS 220900Z 11506G07KT 16/M06 RMK SNOW DEPTH  M





000
SAUS46 KLOX 220859
MTR9L2
METAR K9L2 220855Z AUTO 18007KT 10SM CLR 18/07 A2999 RMK AO2 SLP141
T01830072 51006 $





000
SAUS46 KLOX 220855
MTRLAX
METAR KLAX 220853Z 00000KT 9SM SCT010 19/17 A2997 RMK AO2 SLP145
T01940172 53006





000
SAUS46 KLOX 220854
MTRMWS
METAR KMWS 220845Z 10506G08KT 16/M07 RMK SNOW DEPTH  M





000
SAUS46 KLOX 220852
MTRSMX
METAR KSMX 220851Z AUTO 00000KT 8SM CLR 17/14 A3000 RMK AO2 SLP157
T01670139 56006





000
SAUS46 KLOX 220849
MTRSDB
METAR KSDB 220848Z AUTO 35009KT 10SM CLR 19/09 A3013 RMK AO2 SLP144
T01890089 53000 $





000
SAUS46 KLOX 220848
MTRCQT
METAR KCQT 220847Z AUTO 00000KT 10SM CLR 19/16 A2996 RMK AO2 SLP143
T01890161 53006





000
SAUS46 KLOX 220836
MTRMWS
METAR KMWS 220830Z 23500G00KT MM/M06 RMK SNOW DEPTH  M





000
SAUS46 KLOX 220822
MTRSMX
SPECI KSMX 220821Z AUTO 33003KT 10SM FEW013 17/14 A3000 RMK AO2
T01720139





000
SAUS46 KLOX 220815
MTRMWS
METAR KMWS 220800Z 09505G05KT 16/M06 RMK SNOW DEPTH  M





000
SAUS46 KLOX 220756
MTR9L2
METAR K9L2 220755Z AUTO 19007KT 10SM CLR 19/08 A2999 RMK AO2 SLP139
T01890078 403220156 $





000
SAUS46 KLOX 220754
MTRMWS
METAR KMWS 220745Z 11004G05KT 16/M06 RMK SNOW DEPTH  M





000
SAUS46 KLOX 220754
MTRLAX
METAR KLAX 220753Z 19003KT 10SM CLR 19/17 A2996 RMK AO2 SLP143
T01940172 402500178





000
SAUS46 KLOX 220753
MTRSMX
METAR KSMX 220751Z AUTO 30004KT 10SM OVC013 18/14 A3000 RMK AO2
SLP158 T01830144 402330167





000
SAUS46 KLOX 220749
MTRSDB
METAR KSDB 220748Z AUTO 36009G16KT 10SM CLR 19/09 A3013 RMK AO2
SLP146 T01890089 402830144 $





000
SAUS46 KLOX 220748
MTRCQT
METAR KCQT 220747Z AUTO 00000KT 10SM CLR 19/16 A2995 RMK AO2 SLP140
T01890161 402610183





000
SAUS46 KLOX 220736
MTRMWS
METAR KMWS 220730Z 23500G00KT MM/M05 RMK SNOW DEPTH  M





000
SAUS46 KLOX 220715
MTRMWS
METAR KMWS 220700Z 16003G03KT 15/M07 RMK SNOW DEPTH  M





000
SAUS46 KLOX 220656
MTR9L2
METAR K9L2 220655Z AUTO 20007KT 10SM CLR 20/08 A2999 RMK AO2 SLP138
T02000083 $





000
SAUS46 KLOX 220654
MTRLAX
METAR KLAX 220653Z 00000KT 10SM CLR 19/17 A2995 RMK AO2 SLP140
T01940167





000
SAUS46 KLOX 220654
MTRMWS
METAR KMWS 220645Z 16002G03KT 15/M06 RMK SNOW DEPTH  M





000
SAUS46 KLOX 220652
MTRSMX
METAR KSMX 220651Z AUTO 31005KT 10SM OVC014 18/14 A3001 RMK AO2
SLP161 T01780144





000
SAUS46 KLOX 220649
MTRSDB
METAR KSDB 220648Z AUTO 35012G21KT 10SM CLR 19/08 A3013 RMK AO2
SLP146 T01940083 $





000
SAUS46 KLOX 220648
MTRCQT
METAR KCQT 220647Z AUTO 00000KT 10SM CLR 19/16 A2995 RMK AO2 SLP139
T01890161





000
SAUS46 KLOX 220636
MTRMWS
METAR KMWS 220630Z 23500G00KT MM/M05 RMK SNOW DEPTH  M





000
SAUS46 KLOX 220615
MTRMWS
METAR KMWS 220600Z 22002G02KT 17/M05 RMK SNOW DEPTH  M





000
SAUS46 KLOX 220608
MTRSMX
SPECI KSMX 220607Z AUTO 31003KT 9SM OVC014 18/14 A3001 RMK AO2
T01780144





000
SAUS46 KLOX 220556
MTR9L2
METAR K9L2 220555Z AUTO 20006KT 10SM CLR 22/08 A2998 RMK AO2 SLP135
T02170083 10322 20217 51012 $





000
SAUS46 KLOX 220554
MTRMWS
METAR KMWS 220545Z 14503G04KT 16/M06 RMK SNOW DEPTH  M





000
SAUS46 KLOX 220554
MTRLAX
METAR KLAX 220553Z 24006KT 10SM CLR 19/17 A2995 RMK AO2 SLP139
T01940167 10222 20194 50003





000
SAUS46 KLOX 220553
MTRSMX
METAR KSMX 220551Z AUTO 30003KT 9SM OVC015 17/14 A3001 RMK AO2
SLP164 T01720144 10217 20167 51005





000
SAUS46 KLOX 220550
MTRSDB
METAR KSDB 220548Z AUTO 35011G20KT 10SM CLR 19/09 A3013 RMK AO2
SLP148 T01940089 10261 20189 51004 $





000
SAUS46 KLOX 220548
MTRCQT
METAR KCQT 220547Z AUTO 00000KT 10SM CLR 19/16 A2994 RMK AO2 SLP137
T01890161 10239 20189 50004





000
SAUS46 KLOX 220536
MTRMWS
METAR KMWS 220530Z 23500G00KT MM/M05 RMK SNOW DEPTH  M





000
SAUS46 KLOX 220534
MTRSMX
SPECI KSMX 220533Z AUTO 30004KT 9SM BKN016 17/14 A3001 RMK AO2
T01670139





000
SAUS46 KLOX 220515
MTRMWS
METAR KMWS 220500Z 11005G07KT 16/M05 RMK SNOW DEPTH  M





000
SAUS46 KLOX 220456
MTR9L2
METAR K9L2 220455Z AUTO 27003KT 10SM CLR 24/09 A2997 RMK AO2 SLP132
T02440089 $





000
SAUS46 KLOX 220454
MTRMWS
METAR KMWS 220445Z 11005G05KT 16/M05 RMK SNOW DEPTH  M





000
SAUS46 KLOX 220454
MTRLAX
METAR KLAX 220453Z 27009KT 10SM CLR 19/17 A2995 RMK AO2 SLP140
T01940167





000
SAUS46 KLOX 220452
MTRSMX
METAR KSMX 220451Z AUTO 31006KT 10SM CLR 17/14 A3001 RMK AO2 SLP163
T01720139





000
SAUS46 KLOX 220449
MTRSDB
METAR KSDB 220448Z AUTO 36008KT 10SM CLR 19/09 A3013 RMK AO2 SLP150
T01940089 $





000
SAUS46 KLOX 220448
MTRCQT
METAR KCQT 220447Z AUTO 00000KT 10SM CLR 20/16 A2995 RMK AO2 SLP138
T02000161





000
SAUS46 KLOX 220436
MTRMWS
METAR KMWS 220430Z 23500G00KT MM/M03 RMK SNOW DEPTH  M





000
SAUS46 KLOX 220415
MTRMWS
METAR KMWS 220400Z 08005G08KT 16/M05 RMK SNOW DEPTH  M





000
SAUS46 KLOX 220356
MTR9L2
METAR K9L2 220355Z AUTO 27011KT 10SM CLR 24/09 A2996 RMK AO2 SLP130
T02440089 $





000
SAUS46 KLOX 220354
MTRMWS
METAR KMWS 220345Z 09006G07KT 16/M05 RMK SNOW DEPTH  M





000
SAUS46 KLOX 220354
MTRLAX
METAR KLAX 220353Z 26011KT 10SM FEW015 20/17 A2995 RMK AO2 SLP140
T02000172





000
SAUS46 KLOX 220353
MTRSMX
METAR KSMX 220351Z AUTO 31007KT 10SM CLR 18/14 A3001 RMK AO2 SLP163
T01780144





000
SAUS46 KLOX 220349
MTRSDB
METAR KSDB 220348Z AUTO 33011KT 10SM CLR 19/09 A3013 RMK AO2 SLP154
T01940089 $





000
SAUS46 KLOX 220348
MTRCQT
METAR KCQT 220347Z AUTO 00000KT 10SM CLR 20/16 A2994 RMK AO2 SLP137
T02000156





000
SAUS46 KLOX 220336
MTRMWS
METAR KMWS 220330Z 23500G00KT MM/M04 RMK SNOW DEPTH  M





000
SAUS46 KLOX 220315
MTRMWS
METAR KMWS 220300Z 08506G07KT 16/M06 RMK SNOW DEPTH  M





000
SAUS46 KLOX 220256
MTR9L2
METAR K9L2 220255Z AUTO 25009KT 10SM CLR 26/08 A2994 RMK AO2 SLP124
T02610078 53010 $





000
SAUS46 KLOX 220254
MTRLAX
METAR KLAX 220253Z 27011KT 10SM FEW015 20/17 A2994 RMK AO2 SLP136
T02000167 53002





000
SAUS46 KLOX 220254
MTRMWS
METAR KMWS 220245Z 08506G07KT 16/M07 RMK SNOW DEPTH  M





000
SAUS46 KLOX 220253
MTRSMX
METAR KSMX 220251Z 30011G21KT 10SM CLR 18/14 A3000 RMK AO2 SLP159
T01830144 53008





000
SAUS46 KLOX 220249
MTRSDB
METAR KSDB 220248Z AUTO 29004KT 10SM CLR 19/08 A3012 RMK AO2 SLP153
T01940078 53008 $





000
SAUS46 KLOX 220248
MTRCQT
METAR KCQT 220247Z AUTO 29004KT 10SM CLR 21/16 A2993 RMK AO2 SLP133
T02060156 53004





000
SAUS46 KLOX 220236
MTRMWS
METAR KMWS 220230Z 23500G00KT MM/M04 RMK SNOW DEPTH  M





000
SAUS46 KLOX 220215
MTRMWS
METAR KMWS 220200Z 10006G07KT 17/M05 RMK SNOW DEPTH  M





000
SAUS46 KLOX 220156
MTR9L2
METAR K9L2 220155Z AUTO 25013G20KT 10SM CLR 28/04 A2992 RMK AO2
SLP118 T02780044 $





000
SAUS46 KLOX 220155
MTRLAX
METAR KLAX 220153Z 27013KT 10SM FEW015 21/17 A2994 RMK AO2 SLP134
T02060167





000
SAUS46 KLOX 220154
MTRMWS
METAR KMWS 220145Z 08004G06KT 18/M03 RMK SNOW DEPTH  M





000
SAUS46 KLOX 220152
MTRSMX
METAR KSMX 220151Z 30010KT 10SM FEW010 19/14 A2998 RMK AO2 SLP154
T01890144





000
SAUS46 KLOX 220149
MTRSDB
METAR KSDB 220148Z AUTO 21009KT 10SM 20/08 A3010 RMK AO2 SLP149
T02000083 $





000
SAUS46 KLOX 220149
MTRCQT
METAR KCQT 220147Z AUTO VRB04KT 10SM CLR 22/15 A2992 RMK AO2 SLP130
T02170150





000
SAUS46 KLOX 220136
MTRMWS
METAR KMWS 220130Z 23500G00KT MM/03 RMK SNOW DEPTH  M





000
SAUS46 KLOX 220115
MTRMWS
METAR KMWS 220100Z 22003G05KT 21/08 RMK SNOW DEPTH  M





000
SAUS46 KLOX 220056
MTR9L2
METAR K9L2 220055Z AUTO 26012KT 10SM CLR 31/05 A2990 RMK AO2 SLP110
T03110050 $





000
SAUS46 KLOX 220054
MTRLAX
METAR KLAX 220053Z 28013KT 10SM FEW015 22/16 A2993 RMK AO2 SLP135
T02170161





000
SAUS46 KLOX 220054
MTRMWS
METAR KMWS 220045Z 21004G05KT 22/05 RMK SNOW DEPTH  M





000
SAUS46 KLOX 220053
MTRSMX
METAR KSMX 220051Z 31014KT 10SM FEW016 21/14 A2998 RMK AO2 SLP151
T02060144





000
SAUS46 KLOX 220050
MTRSDB
METAR KSDB 220048Z AUTO 22011KT 10SM CLR 23/07 A3010 RMK AO2 SLP142
T02330067





000
SAUS46 KLOX 220048
MTRCQT
METAR KCQT 220047Z AUTO VRB06KT 10SM CLR 23/16 A2992 RMK AO2 SLP129
T02280156





000
SAUS46 KLOX 220036
MTRMWS
METAR KMWS 220030Z 23500G00KT MM/04 RMK SNOW DEPTH  M





000
SAUS46 KLOX 220015
MTRMWS
METAR KMWS 220000Z 22003G06KT 23/09 RMK SNOW DEPTH  M





000
SAUS46 KLOX 212356
MTR9L2
METAR K9L2 212355Z AUTO 12005KT 10SM CLR 31/02 A2991 RMK AO2 SLP109
T03110022 10322 20244 56012 $





000
SAUS46 KLOX 212355
MTRLAX
METAR KLAX 212353Z 27014KT 10SM FEW015 22/16 A2993 RMK AO2 SLP134
T02220161 10250 20217 56008





000
SAUS46 KLOX 212354
MTRMWS
METAR KMWS 212345Z 27503G05KT 22/10 RMK SNOW DEPTH  M





000
SAUS46 KLOX 212352
MTRSMX
METAR KSMX 212351Z 28014G19KT 10SM SCT018 22/14 A2997 RMK AO2 SLP150
T02170144 10233 20194 56009





000
SAUS46 KLOX 212349
MTRSDB
METAR KSDB 212348Z AUTO 20011KT 10SM CLR 26/03 A3009 RMK AO2 SLP136
T02610033 10283 20250 56003





000
SAUS46 KLOX 212349
MTRCQT
METAR KCQT 212347Z AUTO VRB04KT 10SM CLR 24/15 A2992 RMK AO2 SLP128
T02390150 10261 20217 58006





000
SAUS46 KLOX 212336
MTRMWS
METAR KMWS 212330Z 23500G00KT MM/12 RMK SNOW DEPTH  M





000
SAUS46 KLOX 212315
MTRMWS
METAR KMWS 212300Z 23006G08KT 22/12 RMK SNOW DEPTH  M





000
SAUS46 KLOX 212256
MTR9L2
METAR K9L2 212255Z AUTO 13007KT 10SM CLR 32/03 A2991 RMK AO2 SLP110
T03170028 $





000
SAUS46 KLOX 212254
MTRMWS
METAR KMWS 212245Z 23503G05KT 23/12 RMK SNOW DEPTH  M





000
SAUS46 KLOX 212254
MTRLAX
METAR KLAX 212253Z 26015KT 10SM FEW015 23/16 A2994 RMK AO2 SLP137
T02280156





000
SAUS46 KLOX 212252
MTRSMX
METAR KSMX 212251Z 29014KT 10SM SCT018 22/14 A2998 RMK AO2 SLP153
T02220144





000
SAUS46 KLOX 212249
MTRCQT
METAR KCQT 212247Z AUTO 24004KT 10SM CLR 24/15 A2992 RMK AO2 SLP130
T02440150





000
SAUS46 KLOX 212249
MTRSDB
METAR KSDB 212248Z AUTO 21012G17KT 10SM CLR 27/02 A3009 RMK AO2
SLP136 T02720022





000
SAUS46 KLOX 212236
MTRMWS
METAR KMWS 212230Z 23500G00KT MM/12 RMK SNOW DEPTH  M





000
SAUS46 KLOX 212215
MTRMWS
METAR KMWS 212200Z 23004G06KT 24/11 RMK SNOW DEPTH  M





000
SAUS46 KLOX 212159
MTR9L2
METAR K9L2 212155Z AUTO 00000KT 10SM CLR 31/02 A2993 RMK AO2 SLP117
T03110017 $





000
SAUS46 KLOX 212154
MTRMWS
METAR KMWS 212145Z 24004G07KT 24/12 RMK SNOW DEPTH  M





000
SAUS46 KLOX 212154
MTRLAX
METAR KLAX 212153Z 26013KT 10SM FEW016 24/14 A2995 RMK AO2 T02390144





000
SAUS46 KLOX 212153
MTRSMX
METAR KSMX 212151Z 30013KT 10SM SCT018 23/14 A2999 RMK AO2 SLP154
T02280144





000
SAUS46 KLOX 212149
MTRSDB
METAR KSDB 212148Z AUTO 19012KT 10SM CLR 27/03 A3010 RMK AO2 SLP137
T02720033





000
SAUS46 KLOX 212148
MTRCQT
METAR KCQT 212147Z AUTO VRB03KT 10SM CLR 25/15 A2993 RMK AO2 SLP133
T02500150





000
SAUS46 KLOX 212136
MTRMWS
METAR KMWS 212130Z 23500G00KT MM/11 RMK SNOW DEPTH  M





000
SAUS46 KLOX 212115
MTRMWS
METAR KMWS 212100Z 25002G04KT 24/11 RMK SNOW DEPTH  M





000
SAUS46 KLOX 212056
MTR9L2
METAR K9L2 212055Z AUTO VRB06KT 10SM CLR 28/05 A2994 RMK AO2 SLP122
T02780050 58018 $





000
SAUS46 KLOX 212054
MTRMWS
METAR KMWS 212045Z 25002G03KT 23/12 RMK SNOW DEPTH  M





000
SAUS46 KLOX 212054
MTRLAX
METAR KLAX 212053Z 27011KT 10SM FEW014 24/14 A2996 RMK AO2 SLP143
T02390144 58016





000
SAUS46 KLOX 212052
MTRSMX
METAR KSMX 212051Z 31012KT 10SM SCT018 23/14 A3000 RMK AO2 SLP159
T02280139 58010





000
SAUS46 KLOX 212049
MTRSDB
METAR KSDB 212048Z AUTO 18010KT 10SM CLR 28/09 A3010 RMK AO2 SLP137
T02830089 58009





000
SAUS46 KLOX 212048
MTRCQT
METAR KCQT 212047Z AUTO 00000KT 10SM CLR 26/15 A2993 RMK AO2 SLP134
T02560150 58021





000
SAUS46 KLOX 212036
MTRMWS
METAR KMWS 212030Z 23500G00KT MM/09 RMK SNOW DEPTH  M





000
SAUS46 KLOX 212015
MTRMWS
METAR KMWS 212000Z 04520G16KT 25/07 RMK SNOW DEPTH  M





000
SAUS46 KLOX 211959
MTR9L2
METAR K9L2 211955Z AUTO 13004KT 10SM CLR 29/08 A2997 RMK AO2 SLP130
T02890078 $





000
SAUS46 KLOX 211954
MTRLAX
METAR KLAX 211953Z 27009KT 10SM FEW014 SCT029 24/14 A2998 RMK AO2
SLP149 T02390144





000
SAUS46 KLOX 211954
MTRMWS
METAR KMWS 211945Z 24503G05KT 24/09 RMK SNOW DEPTH  M





000
SAUS46 KLOX 211953
MTRSMX
METAR KSMX 211951Z 30010KT 10SM SCT018 23/14 A3002 RMK AO2 SLP164
T02330144





000
SAUS46 KLOX 211949
MTRSDB
METAR KSDB 211948Z AUTO 19009KT 10SM CLR 26/09 A3012 RMK AO2 SLP143
T02610089





000
SAUS46 KLOX 211948
MTRCQT
METAR KCQT 211947Z AUTO VRB04KT 10SM CLR 25/16 A2996 RMK AO2 SLP142
T02500156





000
SAUS46 KLOX 211936
MTRMWS
METAR KMWS 211930Z 23500G00KT MM/06 RMK SNOW DEPTH  M





000
SAUS46 KLOX 211918
MTRSMX
SPECI KSMX 211916Z 34008KT 10SM SCT018 22/14 A3002 RMK AO2 T02220144





000
SAUS46 KLOX 211915
MTRMWS
METAR KMWS 211900Z 16001G03KT 26/04 RMK SNOW DEPTH  M





000
SAUS46 KLOX 211909
MTRLAX
SPECI KLAX 211907Z 21004KT 10SM SCT028 23/15 A2999 RMK AO2





000
SAUS46 KLOX 211903
MTRCQT
SPECI KCQT 211902Z AUTO 00000KT 10SM SCT027 25/16 A2998 RMK AO2
T02500156





000
SAUS46 KLOX 211859
MTR9L2
METAR K9L2 211855Z AUTO VRB03KT 10SM CLR 27/09 A2999 RMK AO2 SLP136
T02670089 $





000
SAUS46 KLOX 211854
MTRMWS
METAR KMWS 211845Z 25001G03KT 25/05 RMK SNOW DEPTH  M





000
SAUS46 KLOX 211854
MTRLAX
METAR KLAX 211853Z 21005KT 10SM BKN028 23/15 A2999 RMK AO2 SLP155
T02280150





000
SAUS46 KLOX 211852
MTRSMX
METAR KSMX 211851Z 23005KT 10SM BKN016 21/14 A3002 RMK AO2 SLP167
T02060139





000
SAUS46 KLOX 211849
MTRSDB
METAR KSDB 211848Z AUTO 17008KT 10SM FEW055 26/08 A3013 RMK AO2
SLP146 T02610078





000
SAUS46 KLOX 211848
MTRCQT
METAR KCQT 211847Z AUTO 00000KT 10SM OVC027 23/16 A2998 RMK AO2
SLP150 T02330156





000
SAUS46 KLOX 211836
MTRMWS
METAR KMWS 211830Z 23500G00KT MM/04 RMK SNOW DEPTH  M





000
SAUS46 KLOX 211815
MTRSMX
SPECI KSMX 211814Z VRB03KT 10SM OVC015 20/14 A3003 RMK AO2 T02000144





000
SAUS46 KLOX 211815
MTRMWS
METAR KMWS 211800Z 25501G03KT 24/06 RMK SNOW DEPTH  M





000
SAUS46 KLOX 211756
MTR9L2
METAR K9L2 211755Z AUTO 00000KT 10SM CLR 24/09 A3000 RMK AO2 SLP143
T02440094 10244 20156 50002 $





000
SAUS46 KLOX 211754
MTRLAX
METAR KLAX 211753Z 29007KT 10SM OVC026 22/15 A3001 RMK AO2 SLP159
T02170150 10217 20178 51006





000
SAUS46 KLOX 211754
MTRMWS
METAR KMWS 211745Z 23501G03KT 25/07 RMK SNOW DEPTH  M





000
SAUS46 KLOX 211752
MTRSMX
METAR KSMX 211751Z 00000KT 10SM OVC014 19/14 A3003 RMK AO2 SLP169
T01940139 10200 20172 50007





000
SAUS46 KLOX 211749
MTRSDB
METAR KSDB 211748Z AUTO VRB04KT 10SM CLR 25/09 A3013 RMK AO2 SLP151
T02500089 10256 20144 51009





000
SAUS46 KLOX 211748
MTRCQT
METAR KCQT 211747Z AUTO 00000KT 10SM OVC024 22/16 A3000 RMK AO2
SLP155 T02220156 10222 20189 51006





000
SAUS46 KLOX 211736
MTRMWS
METAR KMWS 211730Z 23500G00KT MM/07 RMK SNOW DEPTH  M





000
SAUS46 KLOX 211715
MTRMWS
METAR KMWS 211700Z 28501G02KT 23/04 RMK SNOW DEPTH  M





000
SAUS46 KLOX 211656
MTR9L2
METAR K9L2 211655Z AUTO 16003KT 10SM CLR 22/09 A3001 RMK AO2 SLP147
T02170089 $





000
SAUS46 KLOX 211654
MTRMWS
METAR KMWS 211645Z 05501G03KT 22/06 RMK SNOW DEPTH  M





000
SAUS46 KLOX 211654
MTRLAX
METAR KLAX 211653Z 00000KT 10SM SCT020 BKN023 OVC029 21/16 A3001 RMK
AO2 SLP159 T02110156





000
SAUS46 KLOX 211653
MTRSMX
METAR KSMX 211651Z 35003KT 10SM OVC012 19/14 A3003 RMK AO2 SLP171
T01890139





000
SAUS46 KLOX 211649
MTRSDB
METAR KSDB 211648Z AUTO 00000KT 10SM CLR 23/09 A3013 RMK AO2 SLP152
T02280094





000
SAUS46 KLOX 211648
MTRCQT
METAR KCQT 211647Z AUTO 00000KT 10SM OVC023 21/16 A3000 RMK AO2
SLP155 T02110156





000
SAUS46 KLOX 211636
MTRMWS
METAR KMWS 211630Z 23500G00KT MM/04 RMK SNOW DEPTH  M





000
SAUS46 KLOX 211615
MTRMWS
METAR KMWS 211600Z 01003G04KT 20/06 RMK SNOW DEPTH  M





000
SAUS46 KLOX 211559
MTR9L2
METAR K9L2 211555Z AUTO 16003KT 10SM CLR 19/09 A3000 RMK AO2 SLP145
T01890089 $





000
SAUS46 KLOX 211554
MTRMWS
METAR KMWS 211545Z 03002G04KT 20/08 RMK SNOW DEPTH  M





000
SAUS46 KLOX 211554
MTRLAX
METAR KLAX 211553Z 03004KT 10SM FEW015 SCT020 BKN027 21/16 A3000 RMK
AO2 SLP155 T02110161





000
SAUS46 KLOX 211553
MTRSMX
METAR KSMX 211551Z 30005KT 10SM OVC012 18/14 A3002 RMK AO2 SLP168
T01830139





000
SAUS46 KLOX 211549
MTRSDB
METAR KSDB 211548Z AUTO 23004KT 10SM CLR 19/07 A3012 RMK AO2 SLP154
T01890072





000
SAUS46 KLOX 211549
MTRCQT
METAR KCQT 211547Z AUTO 00000KT 10SM OVC026 21/16 A2999 RMK AO2
SLP152 T02060161





000
SAUS46 KLOX 211541
MTRLAX
SPECI KLAX 211540Z 00000KT 10SM FEW015 SCT020 BKN027 21/16 A2999 RMK
AO2





000
SAUS46 KLOX 211536
MTRMWS
METAR KMWS 211530Z 23500G00KT MM/05 RMK SNOW DEPTH  M





000
SAUS46 KLOX 211515
MTRMWS
METAR KMWS 211500Z 10001G04KT 20/M01 RMK SNOW DEPTH  M





000
SAUS46 KLOX 211456
MTR9L2
METAR K9L2 211455Z AUTO 00000KT 10SM CLR 17/08 A3000 RMK AO2 SLP144
T01720083 53018 $





000
SAUS46 KLOX 211454
MTRMWS
METAR KMWS 211445Z 12501G03KT 18/M02 RMK SNOW DEPTH  M





000
SAUS46 KLOX 211454
MTRLAX
METAR KLAX 211453Z 00000KT 10SM FEW022 BKN030 21/17 A2999 RMK AO2
SLP153 T02060167 53015





000
SAUS46 KLOX 211452
MTRSMX
METAR KSMX 211451Z 33003KT 9SM OVC011 18/14 A3001 RMK AO2 SLP162
T01780144 53015





000
SAUS46 KLOX 211449
MTRSDB
METAR KSDB 211448Z AUTO 22006KT 10SM CLR 16/07 A3010 RMK AO2 SLP148
T01610072 53012





000
SAUS46 KLOX 211448
MTRCQT
METAR KCQT 211447Z AUTO 00000KT 10SM OVC026 20/17 A2998 RMK AO2
SLP149 T02000167 53015





000
SAUS46 KLOX 211436
MTRMWS
METAR KMWS 211430Z 23500G00KT MM/M01 RMK SNOW DEPTH  M





000
SAUS46 KLOX 211435
MTRSMX
SPECI KSMX 211434Z 34003KT 7SM SCT008 OVC013 18/15 A3000 RMK AO2
T01780150





000
SAUS46 KLOX 211434
MTRLAX
SPECI KLAX 211433Z 07003KT 10SM FEW021 BKN030 20/17 A2998 RMK AO2





000
SAUS46 KLOX 211415
MTRMWS
METAR KMWS 211400Z 16502G04KT 14/M02 RMK SNOW DEPTH  M





000
SAUS46 KLOX 211355
MTR9L2
METAR K9L2 211355Z AUTO 00000KT 10SM CLR 16/08 A2997 RMK AO2 SLP136
T01560078 $





000
SAUS46 KLOX 211354
MTRMWS
METAR KMWS 211345Z 10006G07KT 15/03 RMK SNOW DEPTH  M





000
SAUS46 KLOX 211354
MTRLAX
METAR KLAX 211353Z 00000KT 10SM SCT020 OVC026 20/17 A2997 RMK AO2
SLP146 T02000172 $





000
SAUS46 KLOX 211353
MTRSMX
METAR KSMX 211351Z 31005KT 7SM OVC012 18/15 A3000 RMK AO2 SLP159
T01780150





000
SAUS46 KLOX 211349
MTRSDB
METAR KSDB 211348Z AUTO 22007KT 10SM CLR 14/09 A3008 RMK AO2 SLP142
T01440089





000
SAUS46 KLOX 211348
MTRCQT
METAR KCQT 211347Z AUTO 00000KT 10SM OVC020 20/17 A2996 RMK AO2
SLP143 T02000167





000
SAUS46 KLOX 211336
MTRMWS
METAR KMWS 211330Z 23500G00KT MM/02 RMK SNOW DEPTH  M





000
SAUS46 KLOX 211315
MTRMWS
METAR KMWS 211300Z 12504G05KT 12/01 RMK SNOW DEPTH  M





000
SAUS46 KLOX 211255
MTR9L2
METAR K9L2 211255Z AUTO 11003KT 10SM CLR 16/09 A2996 RMK AO2 SLP128
T01560089 $





000
SAUS46 KLOX 211254
MTRMWS
METAR KMWS 211245Z 21501G01KT 12/00 RMK SNOW DEPTH  M





000
SAUS46 KLOX 211254
MTRLAX
METAR KLAX 211253Z 08003KT 10SM OVC023 18/17 A2996 RMK AO2 SLP142
T01800172 $





000
SAUS46 KLOX 211253
MTRSMX
METAR KSMX 211251Z AUTO 28005KT 5SM HZ OVC011 18/15 A2997 RMK AO2
SLP149 T01780150





000
SAUS46 KLOX 211249
MTRSDB
METAR KSDB 211248Z AUTO 20008KT 10SM CLR 15/09 A3007 RMK AO2 SLP131
T01500094





000
SAUS46 KLOX 211248
MTRCQT
METAR KCQT 211247Z AUTO 00000KT 10SM OVC020 19/17 A2994 RMK AO2
SLP137 T01940167





000
SAUS46 KLOX 211215
MTRMWS
METAR KMWS 211200Z 21505G05KT 12/09 RMK SNOW DEPTH  M





000
SAUS46 KLOX 211157
MTRMWS
METAR KMWS 211145Z 21004G05KT 12/08 RMK SNOW DEPTH  M





000
SAUS46 KLOX 211156
MTR9L2
METAR K9L2 211155Z AUTO 17003KT 10SM CLR 17/10 A2994 RMK AO2 SLP120
T01720100 10233 20172 53004 $





000
SAUS46 KLOX 211154
MTRLAX
METAR KLAX 211153Z 00000KT 10SM OVC023 19/17 A2995 RMK AO2 SLP138
T01940172 55000 $





000
SAUS46 KLOX 211152
MTRSMX
METAR KSMX 211151Z AUTO 32007KT 10SM OVC011 18/14 A2996 RMK AO2
SLP147 T01780144 10189 20178 53004





000
SAUS46 KLOX 211149
MTRSDB
METAR KSDB 211148Z AUTO 21007KT 10SM CLR 15/09 A3006 RMK AO2 SLP126
T01500094 10189 20150 55004





000
SAUS46 KLOX 211148
MTRCQT
METAR KCQT 211147Z AUTO 00000KT 10SM OVC023 19/17 A2994 RMK AO2
SLP135 T01890167 10200 20183 55001





000
SAUS46 KLOX 211136
MTRMWS
METAR KMWS 211130Z 23500G00KT MM/08 RMK SNOW DEPTH  M





000
SAUS46 KLOX 211127
MTRCQT
SPECI KCQT 211126Z AUTO 00000KT 10SM BKN024 18/17 A2993 RMK AO2
T01830167





000
SAUS46 KLOX 211115
MTRMWS
METAR KMWS 211100Z 18502G03KT 12/07 RMK SNOW DEPTH  M





000
SAUS46 KLOX 211056
MTR9L2
METAR K9L2 211055Z AUTO 17008KT 10SM CLR 18/09 A2993 RMK AO2 SLP116
T01780089 $





000
SAUS46 KLOX 211056
MTRLAX
METAR KLAX 211053Z 00000KT 10SM OVC023 19/17 A2994 RMK AO2 SLP136
T01900167 $





000
SAUS46 KLOX 211054
MTRMWS
METAR KMWS 211045Z 17002G02KT 13/08 RMK SNOW DEPTH  M





000
SAUS46 KLOX 211053
MTRSMX
METAR KSMX 211051Z AUTO 31006KT 9SM OVC011 18/14 A2996 RMK AO2
SLP144 T01830144





000
SAUS46 KLOX 211049
MTRSDB
METAR KSDB 211048Z AUTO 22007KT 10SM CLR 15/10 A3006 RMK AO2 SLP124
T01500100





000
SAUS46 KLOX 211048
MTRCQT
METAR KCQT 211047Z AUTO 00000KT 10SM CLR 18/17 A2993 RMK AO2 SLP134
T01830167





000
SAUS46 KLOX 211036
MTRMWS
METAR KMWS 211030Z 23500G00KT MM/08 RMK SNOW DEPTH  M





000
SAUS46 KLOX 211026
MTRLAX
SPECI KLAX 211025Z 00000KT 10SM BKN025 19/17 A2994 RMK AO2 $





000
SAUS46 KLOX 211015
MTRMWS
METAR KMWS 211000Z 23501G02KT 12/05 RMK SNOW DEPTH  M





000
SAUS46 KLOX 210956
MTR9L2
METAR K9L2 210955Z AUTO 16005KT 10SM CLR 18/07 A2993 RMK AO2 SLP117
T01830072 $





000
SAUS46 KLOX 210954
MTRMWS
METAR KMWS 210945Z 13503G03KT 13/05 RMK SNOW DEPTH  M





000
SAUS46 KLOX 210954
MTRLAX
METAR KLAX 210953Z 29003KT 10SM SCT015 19/17 A2994 RMK AO2 SLP137
T01900167 $





000
SAUS46 KLOX 210953
MTRSMX
METAR KSMX 210951Z AUTO 00000KT 10SM OVC012 19/14 A2995 RMK AO2
SLP141 T01890144





000
SAUS46 KLOX 210949
MTRSDB
METAR KSDB 210948Z AUTO 25006KT 10SM CLR 16/09 A3006 RMK AO2 SLP125
T01610089





000
SAUS46 KLOX 210948
MTRCQT
METAR KCQT 210947Z AUTO 00000KT 10SM CLR 19/17 A2994 RMK AO2 SLP135
T01890167





000
SAUS46 KLOX 210936
MTRMWS
METAR KMWS 210930Z 23500G00KT MM/05 RMK SNOW DEPTH  M





000
SAUS46 KLOX 210915
MTRMWS
METAR KMWS 210900Z 07501G02KT 12/08 RMK SNOW DEPTH  M





000
SAUS46 KLOX 210859
MTR9L2
METAR K9L2 210855Z AUTO 22008KT 10SM CLR 21/04 A2993 RMK AO2 SLP115
T02110039 51002 $





000
SAUS46 KLOX 210855
MTRLAX
METAR KLAX 210853Z 25003KT 10SM SCT014 19/17 A2995 RMK AO2 SLP138
T01940172 50002 $





000
SAUS46 KLOX 210854
MTRMWS
METAR KMWS 210845Z 05002G04KT 13/04 RMK SNOW DEPTH  M





000
SAUS46 KLOX 210852
MTRSMX
METAR KSMX 210851Z AUTO 27003KT 10SM OVC012 19/14 A2995 RMK AO2
SLP143 T01890144 58008





000
SAUS46 KLOX 210849
MTRSDB
METAR KSDB 210848Z AUTO 24004KT 10SM CLR 16/09 A3007 RMK AO2 SLP128
T01610089 58003





000
SAUS46 KLOX 210848
MTRCQT
METAR KCQT 210847Z AUTO 00000KT 10SM CLR 19/16 A2994 RMK AO2 SLP136
T01890161 51003





000
SAUS46 KLOX 210836
MTRMWS
METAR KMWS 210830Z 23500G00KT MM/07 RMK SNOW DEPTH  M





000
SAUS46 KLOX 210815
MTRMWS
METAR KMWS 210800Z 11504G07KT 13/06 RMK SNOW DEPTH  M





000
SAUS46 KLOX 210759
MTR9L2
METAR K9L2 210755Z AUTO 23008KT 10SM CLR 22/04 A2993 RMK AO2 SLP115
T02220039 403440139 $





000
SAUS46 KLOX 210754
MTRMWS
METAR KMWS 210745Z 14004G08KT 14/07 RMK SNOW DEPTH  M





000
SAUS46 KLOX 210754
MTRLAX
METAR KLAX 210753Z 27006KT 10SM CLR 20/17 A2995 RMK AO2 SLP138
T02000172 402440189 $





000
SAUS46 KLOX 210753
MTRSMX
METAR KSMX 210751Z AUTO 00000KT 10SM OVC012 19/14 A2997 RMK AO2
SLP147 T01890144 402500172





000
SAUS46 KLOX 210749
MTRSDB
METAR KSDB 210748Z AUTO 31010KT 10SM CLR 18/11 A3008 RMK AO2 SLP126
T01780106 402830150





000
SAUS46 KLOX 210748
MTRCQT
METAR KCQT 210747Z AUTO 00000KT 10SM CLR 19/16 A2994 RMK AO2 SLP135
T01940161 402560189





000
SAUS46 KLOX 210736
MTRMWS
METAR KMWS 210730Z 23500G00KT MM/07 RMK SNOW DEPTH  M





000
SAUS46 KLOX 210715
MTRMWS
METAR KMWS 210700Z 14504G08KT 14/08 RMK SNOW DEPTH  M





000
SAUS46 KLOX 210656
MTR9L2
METAR K9L2 210655Z AUTO 24009KT 10SM CLR 23/04 A2993 RMK AO2 SLP117
T02280044 $





000
SAUS46 KLOX 210654
MTRMWS
METAR KMWS 210645Z 13003G06KT 14/09 RMK SNOW DEPTH  M





000
SAUS46 KLOX 210654
MTRLAX
METAR KLAX 210653Z 27008KT 10SM FEW014 20/18 A2994 RMK AO2 SLP137
T02000178 $





000
SAUS46 KLOX 210652
MTRSMX
METAR KSMX 210651Z AUTO 00000KT 8SM OVC014 18/15 A2997 RMK AO2
SLP148 T01830150





000
SAUS46 KLOX 210649
MTRSDB
METAR KSDB 210648Z AUTO 29007KT 10SM CLR 18/11 A3008 RMK AO2 SLP132
T01830106





000
SAUS46 KLOX 210648
MTRCQT
METAR KCQT 210647Z AUTO 00000KT 10SM CLR 19/16 A2994 RMK AO2 SLP134
T01940161





000
SAUS46 KLOX 210636
MTRMWS
METAR KMWS 210630Z 23500G00KT MM/08 RMK SNOW DEPTH  M





000
SAUS46 KLOX 210615
MTRMWS
METAR KMWS 210600Z 21502G04KT 14/06 RMK SNOW DEPTH  M





000
SAUS46 KLOX 210559
MTR9L2
METAR K9L2 210555Z AUTO 23005KT 10SM BKN080 23/06 A2992 RMK AO2
SLP116 T02280061 10322 20228 51016 $





000
SAUS46 KLOX 210554
MTRMWS
METAR KMWS 210545Z 10010G13KT 15/06 RMK SNOW DEPTH  M





000
SAUS46 KLOX 210554
MTRLAX
METAR KLAX 210553Z 26005KT 10SM FEW015 20/17 A2994 RMK AO2 SLP136
T02000172 10228 20200 51010 $





000
SAUS46 KLOX 210553
MTRSMX
METAR KSMX 210551Z AUTO 28005KT 10SM OVC012 19/14 A2998 RMK AO2
SLP151 T01890144 10222 20183 51012





000
SAUS46 KLOX 210549
MTRSDB
METAR KSDB 210548Z AUTO 21006KT 10SM CLR 16/12 A3008 RMK AO2 SLP136
T01610117 10256 20150 51013





000
SAUS46 KLOX 210548
MTRCQT
METAR KCQT 210547Z AUTO 00000KT 10SM CLR 20/16 A2993 RMK AO2 SLP132
T02000156 10244 20194 51009





000
SAUS46 KLOX 210536
MTRMWS
METAR KMWS 210530Z 23500G00KT MM/04 RMK SNOW DEPTH  M





000
SAUS46 KLOX 210515
MTRMWS
METAR KMWS 210500Z 10511G12KT 15/08 RMK SNOW DEPTH  M





000
SAUS46 KLOX 210456
MTR9L2
METAR K9L2 210455Z AUTO 22004KT 10SM FEW085 24/05 A2991 RMK AO2
SLP112 T02390050 $





000
SAUS46 KLOX 210454
MTRLAX
METAR KLAX 210453Z 27006KT 10SM FEW015 21/16 A2993 RMK AO2 SLP133
T02060161 $





000
SAUS46 KLOX 210454
MTRMWS
METAR KMWS 210445Z 11009G11KT 15/05 RMK SNOW DEPTH  M





000
SAUS46 KLOX 210453
MTRSMX
METAR KSMX 210451Z AUTO 34004KT 10SM OVC012 19/14 A2997 RMK AO2
SLP149 T01890144





000
SAUS46 KLOX 210449
MTRSDB
METAR KSDB 210448Z AUTO 22011KT 8SM CLR 16/13 A3007 RMK AO2 SLP133
T01560128





000
SAUS46 KLOX 210448
MTRCQT
METAR KCQT 210447Z AUTO 00000KT 10SM CLR 20/16 A2992 RMK AO2 SLP130
T02000156





    US Dept of Commerce
    National Oceanic and Atmospheric Administration
    National Weather Service
    1325 East West Highway
    Silver Spring, MD 20910
    Page Author: NWS Internet Services Team
Disclaimer
Information Quality
Credits
Glossary
Privacy Policy
Freedom of Information Act (FOIA)
About Us
Career Opportunities